<?xml version="1.0" encoding="UTF-8" standalone="no" ?>
<gpx xmlns="http://www.topografix.com/GPX/1/1" xmlns:xsi="http://www.w3.org/2001/XMLSchema-instance" xsi:schemaLocation="http://www.topografix.com/GPX/1/1 http://www.topografix.com/GPX/1/1/gpx.xsd" version="1.1" creator="VisuGPX - https://www.visugpx.com">
  <metadata>
    <name>01-SEP-20 03:14:55 PM</name>
    <desc><![CDATA[Tour des monts d'Aubrac. 3ème étape, refuge du Rajas vers St-Chely d'Aubrac.Coupure gps maleureusement.]]></desc>
  </metadata>
  <trk>
    <name><![CDATA[01-SEP-20 03:14:55 PM]]></name>
    <trkseg>
      <trkpt lat="44.57622" lon="3.09343">
        <ele>1310.9</ele>
        <time>2020-09-01T06:15:03Z</time>
      </trkpt>
      <trkpt lat="44.57624" lon="3.09344">
        <ele>1319.07</ele>
        <time>2020-09-01T06:15:18Z</time>
      </trkpt>
      <trkpt lat="44.57623" lon="3.09344">
        <ele>1328.68</ele>
        <time>2020-09-01T06:15:33Z</time>
      </trkpt>
      <trkpt lat="44.57624" lon="3.09342">
        <ele>1333.97</ele>
        <time>2020-09-01T06:15:48Z</time>
      </trkpt>
      <trkpt lat="44.57627" lon="3.0935">
        <ele>1335.89</ele>
        <time>2020-09-01T06:16:03Z</time>
      </trkpt>
      <trkpt lat="44.57626" lon="3.09351">
        <ele>1335.89</ele>
        <time>2020-09-01T06:16:18Z</time>
      </trkpt>
      <trkpt lat="44.57627" lon="3.09351">
        <ele>1335.41</ele>
        <time>2020-09-01T06:16:33Z</time>
      </trkpt>
      <trkpt lat="44.57628" lon="3.09351">
        <ele>1335.89</ele>
        <time>2020-09-01T06:16:48Z</time>
      </trkpt>
      <trkpt lat="44.57627" lon="3.09351">
        <ele>1335.41</ele>
        <time>2020-09-01T06:17:03Z</time>
      </trkpt>
      <trkpt lat="44.57628" lon="3.09351">
        <ele>1335.41</ele>
        <time>2020-09-01T06:17:18Z</time>
      </trkpt>
      <trkpt lat="44.57626" lon="3.0935">
        <ele>1335.89</ele>
        <time>2020-09-01T06:17:33Z</time>
      </trkpt>
      <trkpt lat="44.57624" lon="3.09348">
        <ele>1336.85</ele>
        <time>2020-09-01T06:17:48Z</time>
      </trkpt>
      <trkpt lat="44.57626" lon="3.09358">
        <ele>1337.33</ele>
        <time>2020-09-01T06:18:03Z</time>
      </trkpt>
      <trkpt lat="44.57624" lon="3.09356">
        <ele>1336.37</ele>
        <time>2020-09-01T06:18:18Z</time>
      </trkpt>
      <trkpt lat="44.57618" lon="3.09352">
        <ele>1335.89</ele>
        <time>2020-09-01T06:18:33Z</time>
      </trkpt>
      <trkpt lat="44.5761" lon="3.09343">
        <ele>1336.37</ele>
        <time>2020-09-01T06:18:48Z</time>
      </trkpt>
      <trkpt lat="44.57607" lon="3.09331">
        <ele>1335.41</ele>
        <time>2020-09-01T06:19:03Z</time>
      </trkpt>
      <trkpt lat="44.57607" lon="3.09314">
        <ele>1337.81</ele>
        <time>2020-09-01T06:19:18Z</time>
      </trkpt>
      <trkpt lat="44.57611" lon="3.09296">
        <ele>1337.81</ele>
        <time>2020-09-01T06:19:33Z</time>
      </trkpt>
      <trkpt lat="44.57613" lon="3.09282">
        <ele>1340.22</ele>
        <time>2020-09-01T06:19:48Z</time>
      </trkpt>
      <trkpt lat="44.57609" lon="3.0927">
        <ele>1341.66</ele>
        <time>2020-09-01T06:20:03Z</time>
      </trkpt>
      <trkpt lat="44.57608" lon="3.0926">
        <ele>1342.62</ele>
        <time>2020-09-01T06:20:18Z</time>
      </trkpt>
      <trkpt lat="44.57609" lon="3.09242">
        <ele>1342.62</ele>
        <time>2020-09-01T06:20:33Z</time>
      </trkpt>
      <trkpt lat="44.57615" lon="3.09234">
        <ele>1342.62</ele>
        <time>2020-09-01T06:20:48Z</time>
      </trkpt>
      <trkpt lat="44.57619" lon="3.09229">
        <ele>1344.54</ele>
        <time>2020-09-01T06:21:03Z</time>
      </trkpt>
      <trkpt lat="44.57625" lon="3.09214">
        <ele>1348.39</ele>
        <time>2020-09-01T06:21:18Z</time>
      </trkpt>
      <trkpt lat="44.57625" lon="3.09201">
        <ele>1350.31</ele>
        <time>2020-09-01T06:21:33Z</time>
      </trkpt>
      <trkpt lat="44.57625" lon="3.09199">
        <ele>1350.31</ele>
        <time>2020-09-01T06:21:48Z</time>
      </trkpt>
      <trkpt lat="44.5763" lon="3.09198">
        <ele>1349.35</ele>
        <time>2020-09-01T06:22:03Z</time>
      </trkpt>
      <trkpt lat="44.57633" lon="3.092">
        <ele>1352.71</ele>
        <time>2020-09-01T06:22:18Z</time>
      </trkpt>
      <trkpt lat="44.57632" lon="3.09199">
        <ele>1349.83</ele>
        <time>2020-09-01T06:22:33Z</time>
      </trkpt>
      <trkpt lat="44.57635" lon="3.09173">
        <ele>1352.23</ele>
        <time>2020-09-01T06:22:48Z</time>
      </trkpt>
      <trkpt lat="44.57642" lon="3.0915">
        <ele>1355.6</ele>
        <time>2020-09-01T06:23:03Z</time>
      </trkpt>
      <trkpt lat="44.57647" lon="3.09142">
        <ele>1355.12</ele>
        <time>2020-09-01T06:23:18Z</time>
      </trkpt>
      <trkpt lat="44.5765" lon="3.09121">
        <ele>1355.6</ele>
        <time>2020-09-01T06:23:33Z</time>
      </trkpt>
      <trkpt lat="44.57661" lon="3.09105">
        <ele>1357.52</ele>
        <time>2020-09-01T06:23:48Z</time>
      </trkpt>
      <trkpt lat="44.57666" lon="3.09088">
        <ele>1358.48</ele>
        <time>2020-09-01T06:24:03Z</time>
      </trkpt>
      <trkpt lat="44.57676" lon="3.0908">
        <ele>1359.92</ele>
        <time>2020-09-01T06:24:18Z</time>
      </trkpt>
      <trkpt lat="44.57689" lon="3.09076">
        <ele>1364.25</ele>
        <time>2020-09-01T06:24:33Z</time>
      </trkpt>
      <trkpt lat="44.57696" lon="3.09072">
        <ele>1363.77</ele>
        <time>2020-09-01T06:24:48Z</time>
      </trkpt>
      <trkpt lat="44.57704" lon="3.09065">
        <ele>1364.73</ele>
        <time>2020-09-01T06:25:03Z</time>
      </trkpt>
      <trkpt lat="44.57714" lon="3.09053">
        <ele>1367.13</ele>
        <time>2020-09-01T06:25:18Z</time>
      </trkpt>
      <trkpt lat="44.57722" lon="3.09041">
        <ele>1366.65</ele>
        <time>2020-09-01T06:25:33Z</time>
      </trkpt>
      <trkpt lat="44.57725" lon="3.0904">
        <ele>1367.61</ele>
        <time>2020-09-01T06:25:48Z</time>
      </trkpt>
      <trkpt lat="44.57731" lon="3.09032">
        <ele>1369.54</ele>
        <time>2020-09-01T06:26:03Z</time>
      </trkpt>
      <trkpt lat="44.57737" lon="3.09026">
        <ele>1368.57</ele>
        <time>2020-09-01T06:26:18Z</time>
      </trkpt>
      <trkpt lat="44.57752" lon="3.09013">
        <ele>1371.94</ele>
        <time>2020-09-01T06:26:33Z</time>
      </trkpt>
      <trkpt lat="44.57762" lon="3.09003">
        <ele>1372.9</ele>
        <time>2020-09-01T06:26:48Z</time>
      </trkpt>
      <trkpt lat="44.57776" lon="3.08996">
        <ele>1372.9</ele>
        <time>2020-09-01T06:27:03Z</time>
      </trkpt>
      <trkpt lat="44.57792" lon="3.08985">
        <ele>1375.3</ele>
        <time>2020-09-01T06:27:18Z</time>
      </trkpt>
      <trkpt lat="44.57793" lon="3.08981">
        <ele>1375.78</ele>
        <time>2020-09-01T06:27:33Z</time>
      </trkpt>
      <trkpt lat="44.57799" lon="3.08972">
        <ele>1375.3</ele>
        <time>2020-09-01T06:27:48Z</time>
      </trkpt>
      <trkpt lat="44.57813" lon="3.08952">
        <ele>1377.23</ele>
        <time>2020-09-01T06:28:03Z</time>
      </trkpt>
      <trkpt lat="44.5782" lon="3.08928">
        <ele>1379.63</ele>
        <time>2020-09-01T06:28:18Z</time>
      </trkpt>
      <trkpt lat="44.57827" lon="3.08906">
        <ele>1379.15</ele>
        <time>2020-09-01T06:28:33Z</time>
      </trkpt>
      <trkpt lat="44.57832" lon="3.08893">
        <ele>1381.55</ele>
        <time>2020-09-01T06:28:48Z</time>
      </trkpt>
      <trkpt lat="44.57831" lon="3.08892">
        <ele>1381.55</ele>
        <time>2020-09-01T06:29:03Z</time>
      </trkpt>
      <trkpt lat="44.57835" lon="3.08873">
        <ele>1382.03</ele>
        <time>2020-09-01T06:29:18Z</time>
      </trkpt>
      <trkpt lat="44.57842" lon="3.08845">
        <ele>1383.96</ele>
        <time>2020-09-01T06:29:33Z</time>
      </trkpt>
      <trkpt lat="44.57849" lon="3.08822">
        <ele>1384.92</ele>
        <time>2020-09-01T06:29:48Z</time>
      </trkpt>
      <trkpt lat="44.57853" lon="3.08802">
        <ele>1385.4</ele>
        <time>2020-09-01T06:30:03Z</time>
      </trkpt>
      <trkpt lat="44.5786" lon="3.08784">
        <ele>1388.28</ele>
        <time>2020-09-01T06:30:18Z</time>
      </trkpt>
      <trkpt lat="44.57866" lon="3.08764">
        <ele>1388.76</ele>
        <time>2020-09-01T06:30:33Z</time>
      </trkpt>
      <trkpt lat="44.57873" lon="3.08747">
        <ele>1390.2</ele>
        <time>2020-09-01T06:30:48Z</time>
      </trkpt>
      <trkpt lat="44.57877" lon="3.08727">
        <ele>1391.17</ele>
        <time>2020-09-01T06:31:03Z</time>
      </trkpt>
      <trkpt lat="44.57883" lon="3.08707">
        <ele>1392.13</ele>
        <time>2020-09-01T06:31:18Z</time>
      </trkpt>
      <trkpt lat="44.57883" lon="3.08688">
        <ele>1392.61</ele>
        <time>2020-09-01T06:31:33Z</time>
      </trkpt>
      <trkpt lat="44.57884" lon="3.08688">
        <ele>1392.61</ele>
        <time>2020-09-01T06:31:48Z</time>
      </trkpt>
      <trkpt lat="44.57884" lon="3.08687">
        <ele>1392.13</ele>
        <time>2020-09-01T06:32:03Z</time>
      </trkpt>
      <trkpt lat="44.57884" lon="3.08685">
        <ele>1392.61</ele>
        <time>2020-09-01T06:32:18Z</time>
      </trkpt>
      <trkpt lat="44.57885" lon="3.08687">
        <ele>1392.61</ele>
        <time>2020-09-01T06:32:33Z</time>
      </trkpt>
      <trkpt lat="44.57881" lon="3.08687">
        <ele>1391.65</ele>
        <time>2020-09-01T06:32:48Z</time>
      </trkpt>
      <trkpt lat="44.57867" lon="3.08697">
        <ele>1394.05</ele>
        <time>2020-09-01T06:33:03Z</time>
      </trkpt>
      <trkpt lat="44.57855" lon="3.08705">
        <ele>1393.57</ele>
        <time>2020-09-01T06:33:18Z</time>
      </trkpt>
      <trkpt lat="44.57844" lon="3.08714">
        <ele>1395.49</ele>
        <time>2020-09-01T06:33:33Z</time>
      </trkpt>
      <trkpt lat="44.57835" lon="3.08721">
        <ele>1395.49</ele>
        <time>2020-09-01T06:33:48Z</time>
      </trkpt>
      <trkpt lat="44.57823" lon="3.08736">
        <ele>1395.49</ele>
        <time>2020-09-01T06:34:03Z</time>
      </trkpt>
      <trkpt lat="44.57807" lon="3.08747">
        <ele>1397.89</ele>
        <time>2020-09-01T06:34:18Z</time>
      </trkpt>
      <trkpt lat="44.57792" lon="3.08757">
        <ele>1398.86</ele>
        <time>2020-09-01T06:34:33Z</time>
      </trkpt>
      <trkpt lat="44.57783" lon="3.08762">
        <ele>1398.86</ele>
        <time>2020-09-01T06:34:48Z</time>
      </trkpt>
      <trkpt lat="44.57768" lon="3.08775">
        <ele>1400.3</ele>
        <time>2020-09-01T06:35:03Z</time>
      </trkpt>
      <trkpt lat="44.57753" lon="3.08787">
        <ele>1401.26</ele>
        <time>2020-09-01T06:35:18Z</time>
      </trkpt>
      <trkpt lat="44.57738" lon="3.08795">
        <ele>1402.22</ele>
        <time>2020-09-01T06:35:33Z</time>
      </trkpt>
      <trkpt lat="44.57722" lon="3.08802">
        <ele>1401.74</ele>
        <time>2020-09-01T06:35:48Z</time>
      </trkpt>
      <trkpt lat="44.57706" lon="3.0881">
        <ele>1403.66</ele>
        <time>2020-09-01T06:36:03Z</time>
      </trkpt>
      <trkpt lat="44.57689" lon="3.08816">
        <ele>1404.14</ele>
        <time>2020-09-01T06:36:18Z</time>
      </trkpt>
      <trkpt lat="44.57673" lon="3.08824">
        <ele>1404.62</ele>
        <time>2020-09-01T06:36:33Z</time>
      </trkpt>
      <trkpt lat="44.57656" lon="3.08831">
        <ele>1404.62</ele>
        <time>2020-09-01T06:36:48Z</time>
      </trkpt>
      <trkpt lat="44.57638" lon="3.0884">
        <ele>1406.07</ele>
        <time>2020-09-01T06:37:03Z</time>
      </trkpt>
      <trkpt lat="44.57622" lon="3.08843">
        <ele>1406.07</ele>
        <time>2020-09-01T06:37:18Z</time>
      </trkpt>
      <trkpt lat="44.57605" lon="3.08845">
        <ele>1406.07</ele>
        <time>2020-09-01T06:37:33Z</time>
      </trkpt>
      <trkpt lat="44.57587" lon="3.08844">
        <ele>1404.62</ele>
        <time>2020-09-01T06:37:48Z</time>
      </trkpt>
      <trkpt lat="44.57572" lon="3.08846">
        <ele>1404.62</ele>
        <time>2020-09-01T06:38:03Z</time>
      </trkpt>
      <trkpt lat="44.57555" lon="3.08848">
        <ele>1403.18</ele>
        <time>2020-09-01T06:38:18Z</time>
      </trkpt>
      <trkpt lat="44.57538" lon="3.08854">
        <ele>1400.78</ele>
        <time>2020-09-01T06:38:33Z</time>
      </trkpt>
      <trkpt lat="44.57522" lon="3.08854">
        <ele>1399.34</ele>
        <time>2020-09-01T06:38:48Z</time>
      </trkpt>
      <trkpt lat="44.57516" lon="3.08857">
        <ele>1398.86</ele>
        <time>2020-09-01T06:39:03Z</time>
      </trkpt>
      <trkpt lat="44.57515" lon="3.08855">
        <ele>1398.86</ele>
        <time>2020-09-01T06:39:18Z</time>
      </trkpt>
      <trkpt lat="44.57501" lon="3.08859">
        <ele>1397.41</ele>
        <time>2020-09-01T06:39:33Z</time>
      </trkpt>
      <trkpt lat="44.57482" lon="3.08857">
        <ele>1395.49</ele>
        <time>2020-09-01T06:39:48Z</time>
      </trkpt>
      <trkpt lat="44.57465" lon="3.08852">
        <ele>1393.57</ele>
        <time>2020-09-01T06:40:03Z</time>
      </trkpt>
      <trkpt lat="44.57448" lon="3.08849">
        <ele>1392.13</ele>
        <time>2020-09-01T06:40:18Z</time>
      </trkpt>
      <trkpt lat="44.57431" lon="3.08846">
        <ele>1389.72</ele>
        <time>2020-09-01T06:40:33Z</time>
      </trkpt>
      <trkpt lat="44.57416" lon="3.08842">
        <ele>1387.8</ele>
        <time>2020-09-01T06:40:48Z</time>
      </trkpt>
      <trkpt lat="44.574" lon="3.0884">
        <ele>1386.36</ele>
        <time>2020-09-01T06:41:03Z</time>
      </trkpt>
      <trkpt lat="44.57385" lon="3.08837">
        <ele>1383.47</ele>
        <time>2020-09-01T06:41:18Z</time>
      </trkpt>
      <trkpt lat="44.57377" lon="3.08832">
        <ele>1382.99</ele>
        <time>2020-09-01T06:41:33Z</time>
      </trkpt>
      <trkpt lat="44.57377" lon="3.0883">
        <ele>1382.99</ele>
        <time>2020-09-01T06:41:48Z</time>
      </trkpt>
      <trkpt lat="44.57369" lon="3.0882">
        <ele>1382.51</ele>
        <time>2020-09-01T06:42:03Z</time>
      </trkpt>
      <trkpt lat="44.57356" lon="3.08803">
        <ele>1380.11</ele>
        <time>2020-09-01T06:42:18Z</time>
      </trkpt>
      <trkpt lat="44.57349" lon="3.0879">
        <ele>1379.63</ele>
        <time>2020-09-01T06:42:33Z</time>
      </trkpt>
      <trkpt lat="44.5734" lon="3.08774">
        <ele>1378.67</ele>
        <time>2020-09-01T06:42:48Z</time>
      </trkpt>
      <trkpt lat="44.5734" lon="3.08768">
        <ele>1378.19</ele>
        <time>2020-09-01T06:43:03Z</time>
      </trkpt>
      <trkpt lat="44.57343" lon="3.0878">
        <ele>1378.67</ele>
        <time>2020-09-01T06:43:18Z</time>
      </trkpt>
      <trkpt lat="44.57344" lon="3.08782">
        <ele>1378.19</ele>
        <time>2020-09-01T06:43:33Z</time>
      </trkpt>
      <trkpt lat="44.57344" lon="3.08782">
        <ele>1378.19</ele>
        <time>2020-09-01T06:43:48Z</time>
      </trkpt>
      <trkpt lat="44.57345" lon="3.08783">
        <ele>1378.19</ele>
        <time>2020-09-01T06:44:03Z</time>
      </trkpt>
      <trkpt lat="44.57345" lon="3.08782">
        <ele>1378.19</ele>
        <time>2020-09-01T06:44:18Z</time>
      </trkpt>
      <trkpt lat="44.57345" lon="3.08787">
        <ele>1378.19</ele>
        <time>2020-09-01T06:44:33Z</time>
      </trkpt>
      <trkpt lat="44.57345" lon="3.08801">
        <ele>1377.23</ele>
        <time>2020-09-01T06:44:48Z</time>
      </trkpt>
      <trkpt lat="44.5734" lon="3.08799">
        <ele>1376.26</ele>
        <time>2020-09-01T06:45:03Z</time>
      </trkpt>
      <trkpt lat="44.57329" lon="3.08785">
        <ele>1374.82</ele>
        <time>2020-09-01T06:45:18Z</time>
      </trkpt>
      <trkpt lat="44.57322" lon="3.08768">
        <ele>1372.42</ele>
        <time>2020-09-01T06:45:33Z</time>
      </trkpt>
      <trkpt lat="44.57317" lon="3.08759">
        <ele>1370.98</ele>
        <time>2020-09-01T06:45:48Z</time>
      </trkpt>
      <trkpt lat="44.57316" lon="3.08755">
        <ele>1370.5</ele>
        <time>2020-09-01T06:46:03Z</time>
      </trkpt>
      <trkpt lat="44.57309" lon="3.08753">
        <ele>1371.46</ele>
        <time>2020-09-01T06:46:18Z</time>
      </trkpt>
      <trkpt lat="44.573" lon="3.08747">
        <ele>1374.34</ele>
        <time>2020-09-01T06:46:33Z</time>
      </trkpt>
      <trkpt lat="44.5729" lon="3.0874">
        <ele>1375.3</ele>
        <time>2020-09-01T06:46:48Z</time>
      </trkpt>
      <trkpt lat="44.57281" lon="3.08743">
        <ele>1376.75</ele>
        <time>2020-09-01T06:47:03Z</time>
      </trkpt>
      <trkpt lat="44.57271" lon="3.08741">
        <ele>1378.19</ele>
        <time>2020-09-01T06:47:18Z</time>
      </trkpt>
      <trkpt lat="44.57263" lon="3.0874">
        <ele>1378.67</ele>
        <time>2020-09-01T06:47:33Z</time>
      </trkpt>
      <trkpt lat="44.57254" lon="3.08739">
        <ele>1381.07</ele>
        <time>2020-09-01T06:47:48Z</time>
      </trkpt>
      <trkpt lat="44.57246" lon="3.08735">
        <ele>1383.96</ele>
        <time>2020-09-01T06:48:03Z</time>
      </trkpt>
      <trkpt lat="44.57238" lon="3.08734">
        <ele>1384.92</ele>
        <time>2020-09-01T06:48:18Z</time>
      </trkpt>
      <trkpt lat="44.57227" lon="3.08731">
        <ele>1386.84</ele>
        <time>2020-09-01T06:48:33Z</time>
      </trkpt>
      <trkpt lat="44.57221" lon="3.08729">
        <ele>1388.28</ele>
        <time>2020-09-01T06:48:48Z</time>
      </trkpt>
      <trkpt lat="44.57212" lon="3.08728">
        <ele>1390.2</ele>
        <time>2020-09-01T06:49:03Z</time>
      </trkpt>
      <trkpt lat="44.57202" lon="3.08725">
        <ele>1391.17</ele>
        <time>2020-09-01T06:49:18Z</time>
      </trkpt>
      <trkpt lat="44.57191" lon="3.08718">
        <ele>1393.57</ele>
        <time>2020-09-01T06:49:33Z</time>
      </trkpt>
      <trkpt lat="44.57182" lon="3.08708">
        <ele>1395.49</ele>
        <time>2020-09-01T06:49:48Z</time>
      </trkpt>
      <trkpt lat="44.57173" lon="3.087">
        <ele>1396.93</ele>
        <time>2020-09-01T06:50:03Z</time>
      </trkpt>
      <trkpt lat="44.57163" lon="3.08689">
        <ele>1399.34</ele>
        <time>2020-09-01T06:50:18Z</time>
      </trkpt>
      <trkpt lat="44.57154" lon="3.08679">
        <ele>1402.22</ele>
        <time>2020-09-01T06:50:33Z</time>
      </trkpt>
      <trkpt lat="44.57144" lon="3.08668">
        <ele>1404.14</ele>
        <time>2020-09-01T06:50:48Z</time>
      </trkpt>
      <trkpt lat="44.57137" lon="3.08655">
        <ele>1406.07</ele>
        <time>2020-09-01T06:51:03Z</time>
      </trkpt>
      <trkpt lat="44.57128" lon="3.08647">
        <ele>1408.47</ele>
        <time>2020-09-01T06:51:18Z</time>
      </trkpt>
      <trkpt lat="44.57118" lon="3.0864">
        <ele>1409.91</ele>
        <time>2020-09-01T06:51:33Z</time>
      </trkpt>
      <trkpt lat="44.57117" lon="3.08637">
        <ele>1410.87</ele>
        <time>2020-09-01T06:51:48Z</time>
      </trkpt>
      <trkpt lat="44.57116" lon="3.08635">
        <ele>1410.39</ele>
        <time>2020-09-01T06:52:03Z</time>
      </trkpt>
      <trkpt lat="44.57116" lon="3.08636">
        <ele>1410.87</ele>
        <time>2020-09-01T06:52:18Z</time>
      </trkpt>
      <trkpt lat="44.57114" lon="3.08642">
        <ele>1409.91</ele>
        <time>2020-09-01T06:52:33Z</time>
      </trkpt>
      <trkpt lat="44.57105" lon="3.0866">
        <ele>1410.87</ele>
        <time>2020-09-01T06:52:48Z</time>
      </trkpt>
      <trkpt lat="44.57097" lon="3.08676">
        <ele>1411.83</ele>
        <time>2020-09-01T06:53:03Z</time>
      </trkpt>
      <trkpt lat="44.57086" lon="3.08693">
        <ele>1412.31</ele>
        <time>2020-09-01T06:53:18Z</time>
      </trkpt>
      <trkpt lat="44.57075" lon="3.08709">
        <ele>1411.83</ele>
        <time>2020-09-01T06:53:33Z</time>
      </trkpt>
      <trkpt lat="44.57065" lon="3.08723">
        <ele>1413.28</ele>
        <time>2020-09-01T06:53:48Z</time>
      </trkpt>
      <trkpt lat="44.57054" lon="3.08739">
        <ele>1414.24</ele>
        <time>2020-09-01T06:54:03Z</time>
      </trkpt>
      <trkpt lat="44.57043" lon="3.08754">
        <ele>1413.76</ele>
        <time>2020-09-01T06:54:18Z</time>
      </trkpt>
      <trkpt lat="44.5704" lon="3.08758">
        <ele>1413.28</ele>
        <time>2020-09-01T06:54:33Z</time>
      </trkpt>
      <trkpt lat="44.57038" lon="3.08777">
        <ele>1411.83</ele>
        <time>2020-09-01T06:54:48Z</time>
      </trkpt>
      <trkpt lat="44.57036" lon="3.08805">
        <ele>1410.87</ele>
        <time>2020-09-01T06:55:03Z</time>
      </trkpt>
      <trkpt lat="44.57036" lon="3.08814">
        <ele>1410.39</ele>
        <time>2020-09-01T06:55:18Z</time>
      </trkpt>
      <trkpt lat="44.57035" lon="3.08823">
        <ele>1409.43</ele>
        <time>2020-09-01T06:55:33Z</time>
      </trkpt>
      <trkpt lat="44.57036" lon="3.08818">
        <ele>1409.43</ele>
        <time>2020-09-01T06:55:48Z</time>
      </trkpt>
      <trkpt lat="44.57038" lon="3.08804">
        <ele>1410.39</ele>
        <time>2020-09-01T06:56:03Z</time>
      </trkpt>
      <trkpt lat="44.57042" lon="3.0878">
        <ele>1411.35</ele>
        <time>2020-09-01T06:56:18Z</time>
      </trkpt>
      <trkpt lat="44.5704" lon="3.08759">
        <ele>1414.24</ele>
        <time>2020-09-01T06:56:33Z</time>
      </trkpt>
      <trkpt lat="44.5705" lon="3.08746">
        <ele>1413.76</ele>
        <time>2020-09-01T06:56:48Z</time>
      </trkpt>
      <trkpt lat="44.57049" lon="3.08743">
        <ele>1414.72</ele>
        <time>2020-09-01T06:57:03Z</time>
      </trkpt>
      <trkpt lat="44.57049" lon="3.08741">
        <ele>1413.76</ele>
        <time>2020-09-01T06:57:18Z</time>
      </trkpt>
      <trkpt lat="44.57049" lon="3.08741">
        <ele>1414.72</ele>
        <time>2020-09-01T06:57:33Z</time>
      </trkpt>
      <trkpt lat="44.57047" lon="3.08742">
        <ele>1415.2</ele>
        <time>2020-09-01T06:57:48Z</time>
      </trkpt>
      <trkpt lat="44.57047" lon="3.08742">
        <ele>1415.2</ele>
        <time>2020-09-01T06:58:03Z</time>
      </trkpt>
      <trkpt lat="44.57048" lon="3.08743">
        <ele>1414.24</ele>
        <time>2020-09-01T06:58:18Z</time>
      </trkpt>
      <trkpt lat="44.57049" lon="3.08743">
        <ele>1414.24</ele>
        <time>2020-09-01T06:58:33Z</time>
      </trkpt>
      <trkpt lat="44.57043" lon="3.08749">
        <ele>1415.2</ele>
        <time>2020-09-01T06:58:48Z</time>
      </trkpt>
      <trkpt lat="44.5704" lon="3.08751">
        <ele>1413.28</ele>
        <time>2020-09-01T06:59:03Z</time>
      </trkpt>
      <trkpt lat="44.57032" lon="3.08736">
        <ele>1417.6</ele>
        <time>2020-09-01T06:59:18Z</time>
      </trkpt>
      <trkpt lat="44.57024" lon="3.08721">
        <ele>1419.52</ele>
        <time>2020-09-01T06:59:33Z</time>
      </trkpt>
      <trkpt lat="44.57016" lon="3.08705">
        <ele>1420.97</ele>
        <time>2020-09-01T06:59:48Z</time>
      </trkpt>
      <trkpt lat="44.57009" lon="3.08688">
        <ele>1421.93</ele>
        <time>2020-09-01T07:00:03Z</time>
      </trkpt>
      <trkpt lat="44.57001" lon="3.08672">
        <ele>1423.85</ele>
        <time>2020-09-01T07:00:18Z</time>
      </trkpt>
      <trkpt lat="44.56994" lon="3.08655">
        <ele>1425.29</ele>
        <time>2020-09-01T07:00:33Z</time>
      </trkpt>
      <trkpt lat="44.56987" lon="3.08638">
        <ele>1427.21</ele>
        <time>2020-09-01T07:00:48Z</time>
      </trkpt>
      <trkpt lat="44.5698" lon="3.0862">
        <ele>1428.66</ele>
        <time>2020-09-01T07:01:03Z</time>
      </trkpt>
      <trkpt lat="44.56971" lon="3.08603">
        <ele>1430.1</ele>
        <time>2020-09-01T07:01:18Z</time>
      </trkpt>
      <trkpt lat="44.56963" lon="3.08586">
        <ele>1431.06</ele>
        <time>2020-09-01T07:01:33Z</time>
      </trkpt>
      <trkpt lat="44.56956" lon="3.08569">
        <ele>1432.98</ele>
        <time>2020-09-01T07:01:48Z</time>
      </trkpt>
      <trkpt lat="44.56948" lon="3.08553">
        <ele>1434.42</ele>
        <time>2020-09-01T07:02:03Z</time>
      </trkpt>
      <trkpt lat="44.56941" lon="3.08535">
        <ele>1435.39</ele>
        <time>2020-09-01T07:02:18Z</time>
      </trkpt>
      <trkpt lat="44.56938" lon="3.08528">
        <ele>1436.35</ele>
        <time>2020-09-01T07:02:33Z</time>
      </trkpt>
      <trkpt lat="44.56938" lon="3.08527">
        <ele>1437.79</ele>
        <time>2020-09-01T07:02:48Z</time>
      </trkpt>
      <trkpt lat="44.56933" lon="3.08523">
        <ele>1437.79</ele>
        <time>2020-09-01T07:03:03Z</time>
      </trkpt>
      <trkpt lat="44.56918" lon="3.08514">
        <ele>1438.75</ele>
        <time>2020-09-01T07:03:18Z</time>
      </trkpt>
      <trkpt lat="44.56904" lon="3.08504">
        <ele>1441.15</ele>
        <time>2020-09-01T07:03:33Z</time>
      </trkpt>
      <trkpt lat="44.56889" lon="3.08497">
        <ele>1441.63</ele>
        <time>2020-09-01T07:03:48Z</time>
      </trkpt>
      <trkpt lat="44.56875" lon="3.08489">
        <ele>1443.56</ele>
        <time>2020-09-01T07:04:03Z</time>
      </trkpt>
      <trkpt lat="44.56863" lon="3.08478">
        <ele>1445.48</ele>
        <time>2020-09-01T07:04:18Z</time>
      </trkpt>
      <trkpt lat="44.5685" lon="3.08472">
        <ele>1447.4</ele>
        <time>2020-09-01T07:04:33Z</time>
      </trkpt>
      <trkpt lat="44.56838" lon="3.08463">
        <ele>1449.81</ele>
        <time>2020-09-01T07:04:48Z</time>
      </trkpt>
      <trkpt lat="44.56825" lon="3.08455">
        <ele>1451.73</ele>
        <time>2020-09-01T07:05:03Z</time>
      </trkpt>
      <trkpt lat="44.56813" lon="3.08449">
        <ele>1453.65</ele>
        <time>2020-09-01T07:05:18Z</time>
      </trkpt>
      <trkpt lat="44.56808" lon="3.08447">
        <ele>1454.61</ele>
        <time>2020-09-01T07:05:33Z</time>
      </trkpt>
      <trkpt lat="44.56808" lon="3.08446">
        <ele>1454.13</ele>
        <time>2020-09-01T07:05:48Z</time>
      </trkpt>
      <trkpt lat="44.56808" lon="3.08446">
        <ele>1454.13</ele>
        <time>2020-09-01T07:06:03Z</time>
      </trkpt>
      <trkpt lat="44.56806" lon="3.08449">
        <ele>1455.09</ele>
        <time>2020-09-01T07:06:18Z</time>
      </trkpt>
      <trkpt lat="44.56796" lon="3.08442">
        <ele>1454.61</ele>
        <time>2020-09-01T07:06:33Z</time>
      </trkpt>
      <trkpt lat="44.56782" lon="3.08431">
        <ele>1457.02</ele>
        <time>2020-09-01T07:06:48Z</time>
      </trkpt>
      <trkpt lat="44.56781" lon="3.08426">
        <ele>1457.02</ele>
        <time>2020-09-01T07:07:03Z</time>
      </trkpt>
      <trkpt lat="44.56777" lon="3.08426">
        <ele>1457.98</ele>
        <time>2020-09-01T07:07:18Z</time>
      </trkpt>
      <trkpt lat="44.56763" lon="3.08408">
        <ele>1458.46</ele>
        <time>2020-09-01T07:07:33Z</time>
      </trkpt>
      <trkpt lat="44.56754" lon="3.08387">
        <ele>1461.34</ele>
        <time>2020-09-01T07:07:48Z</time>
      </trkpt>
      <trkpt lat="44.56744" lon="3.08368">
        <ele>1462.78</ele>
        <time>2020-09-01T07:08:03Z</time>
      </trkpt>
      <trkpt lat="44.56736" lon="3.08349">
        <ele>1463.74</ele>
        <time>2020-09-01T07:08:18Z</time>
      </trkpt>
      <trkpt lat="44.56727" lon="3.08331">
        <ele>1465.67</ele>
        <time>2020-09-01T07:08:33Z</time>
      </trkpt>
      <trkpt lat="44.56717" lon="3.08315">
        <ele>1466.63</ele>
        <time>2020-09-01T07:08:48Z</time>
      </trkpt>
      <trkpt lat="44.5671" lon="3.08298">
        <ele>1468.07</ele>
        <time>2020-09-01T07:09:03Z</time>
      </trkpt>
      <trkpt lat="44.56703" lon="3.0828">
        <ele>1470.95</ele>
        <time>2020-09-01T07:09:18Z</time>
      </trkpt>
      <trkpt lat="44.56696" lon="3.08264">
        <ele>1471.92</ele>
        <time>2020-09-01T07:09:33Z</time>
      </trkpt>
      <trkpt lat="44.5669" lon="3.0825">
        <ele>1472.4</ele>
        <time>2020-09-01T07:09:48Z</time>
      </trkpt>
      <trkpt lat="44.56685" lon="3.08243">
        <ele>1473.84</ele>
        <time>2020-09-01T07:10:03Z</time>
      </trkpt>
      <trkpt lat="44.56684" lon="3.08243">
        <ele>1472.88</ele>
        <time>2020-09-01T07:10:18Z</time>
      </trkpt>
      <trkpt lat="44.56685" lon="3.08243">
        <ele>1472.88</ele>
        <time>2020-09-01T07:10:33Z</time>
      </trkpt>
      <trkpt lat="44.56685" lon="3.08243">
        <ele>1472.88</ele>
        <time>2020-09-01T07:10:48Z</time>
      </trkpt>
      <trkpt lat="44.56687" lon="3.08238">
        <ele>1472.4</ele>
        <time>2020-09-01T07:11:03Z</time>
      </trkpt>
      <trkpt lat="44.56689" lon="3.08236">
        <ele>1472.4</ele>
        <time>2020-09-01T07:11:18Z</time>
      </trkpt>
      <trkpt lat="44.56688" lon="3.08238">
        <ele>1471.92</ele>
        <time>2020-09-01T07:11:33Z</time>
      </trkpt>
      <trkpt lat="44.56688" lon="3.08238">
        <ele>1472.4</ele>
        <time>2020-09-01T07:11:48Z</time>
      </trkpt>
      <trkpt lat="44.56688" lon="3.08238">
        <ele>1472.4</ele>
        <time>2020-09-01T07:12:03Z</time>
      </trkpt>
      <trkpt lat="44.56688" lon="3.08239">
        <ele>1472.88</ele>
        <time>2020-09-01T07:12:18Z</time>
      </trkpt>
      <trkpt lat="44.56688" lon="3.08238">
        <ele>1472.88</ele>
        <time>2020-09-01T07:12:33Z</time>
      </trkpt>
      <trkpt lat="44.56687" lon="3.08238">
        <ele>1472.4</ele>
        <time>2020-09-01T07:12:48Z</time>
      </trkpt>
      <trkpt lat="44.56688" lon="3.08238">
        <ele>1473.36</ele>
        <time>2020-09-01T07:13:03Z</time>
      </trkpt>
      <trkpt lat="44.56688" lon="3.08238">
        <ele>1472.4</ele>
        <time>2020-09-01T07:13:18Z</time>
      </trkpt>
      <trkpt lat="44.56688" lon="3.08238">
        <ele>1472.88</ele>
        <time>2020-09-01T07:13:33Z</time>
      </trkpt>
      <trkpt lat="44.56688" lon="3.08238">
        <ele>1473.36</ele>
        <time>2020-09-01T07:13:48Z</time>
      </trkpt>
      <trkpt lat="44.56688" lon="3.08238">
        <ele>1472.4</ele>
        <time>2020-09-01T07:14:03Z</time>
      </trkpt>
      <trkpt lat="44.56688" lon="3.08238">
        <ele>1472.88</ele>
        <time>2020-09-01T07:14:18Z</time>
      </trkpt>
      <trkpt lat="44.56688" lon="3.08238">
        <ele>1473.36</ele>
        <time>2020-09-01T07:14:33Z</time>
      </trkpt>
      <trkpt lat="44.56688" lon="3.08238">
        <ele>1472.88</ele>
        <time>2020-09-01T07:14:48Z</time>
      </trkpt>
      <trkpt lat="44.56688" lon="3.08238">
        <ele>1473.36</ele>
        <time>2020-09-01T07:15:03Z</time>
      </trkpt>
      <trkpt lat="44.56688" lon="3.08238">
        <ele>1473.36</ele>
        <time>2020-09-01T07:15:18Z</time>
      </trkpt>
      <trkpt lat="44.56688" lon="3.08238">
        <ele>1472.88</ele>
        <time>2020-09-01T07:15:33Z</time>
      </trkpt>
      <trkpt lat="44.56688" lon="3.08238">
        <ele>1473.36</ele>
        <time>2020-09-01T07:15:48Z</time>
      </trkpt>
      <trkpt lat="44.56688" lon="3.08238">
        <ele>1472.88</ele>
        <time>2020-09-01T07:16:03Z</time>
      </trkpt>
      <trkpt lat="44.56688" lon="3.08238">
        <ele>1472.88</ele>
        <time>2020-09-01T07:16:18Z</time>
      </trkpt>
      <trkpt lat="44.56689" lon="3.08238">
        <ele>1473.36</ele>
        <time>2020-09-01T07:16:33Z</time>
      </trkpt>
      <trkpt lat="44.56689" lon="3.08238">
        <ele>1473.84</ele>
        <time>2020-09-01T07:16:48Z</time>
      </trkpt>
      <trkpt lat="44.56689" lon="3.08238">
        <ele>1473.36</ele>
        <time>2020-09-01T07:17:03Z</time>
      </trkpt>
      <trkpt lat="44.56688" lon="3.08238">
        <ele>1473.36</ele>
        <time>2020-09-01T07:17:18Z</time>
      </trkpt>
      <trkpt lat="44.56688" lon="3.08238">
        <ele>1473.84</ele>
        <time>2020-09-01T07:17:33Z</time>
      </trkpt>
      <trkpt lat="44.56688" lon="3.08238">
        <ele>1473.84</ele>
        <time>2020-09-01T07:17:48Z</time>
      </trkpt>
      <trkpt lat="44.56689" lon="3.08238">
        <ele>1472.88</ele>
        <time>2020-09-01T07:18:03Z</time>
      </trkpt>
      <trkpt lat="44.56689" lon="3.08239">
        <ele>1472.88</ele>
        <time>2020-09-01T07:18:18Z</time>
      </trkpt>
      <trkpt lat="44.56689" lon="3.08239">
        <ele>1474.32</ele>
        <time>2020-09-01T07:18:33Z</time>
      </trkpt>
      <trkpt lat="44.56687" lon="3.08237">
        <ele>1473.84</ele>
        <time>2020-09-01T07:18:48Z</time>
      </trkpt>
      <trkpt lat="44.56689" lon="3.08234">
        <ele>1474.32</ele>
        <time>2020-09-01T07:19:03Z</time>
      </trkpt>
      <trkpt lat="44.56692" lon="3.0822">
        <ele>1475.28</ele>
        <time>2020-09-01T07:19:18Z</time>
      </trkpt>
      <trkpt lat="44.56693" lon="3.08192">
        <ele>1474.32</ele>
        <time>2020-09-01T07:19:33Z</time>
      </trkpt>
      <trkpt lat="44.56691" lon="3.08167">
        <ele>1472.4</ele>
        <time>2020-09-01T07:19:48Z</time>
      </trkpt>
      <trkpt lat="44.5669" lon="3.08147">
        <ele>1472.88</ele>
        <time>2020-09-01T07:20:03Z</time>
      </trkpt>
      <trkpt lat="44.56689" lon="3.08142">
        <ele>1472.88</ele>
        <time>2020-09-01T07:20:18Z</time>
      </trkpt>
      <trkpt lat="44.56698" lon="3.08136">
        <ele>1474.32</ele>
        <time>2020-09-01T07:20:33Z</time>
      </trkpt>
      <trkpt lat="44.567" lon="3.08137">
        <ele>1473.36</ele>
        <time>2020-09-01T07:20:48Z</time>
      </trkpt>
      <trkpt lat="44.567" lon="3.08137">
        <ele>1473.36</ele>
        <time>2020-09-01T07:21:03Z</time>
      </trkpt>
      <trkpt lat="44.56699" lon="3.08138">
        <ele>1473.36</ele>
        <time>2020-09-01T07:21:18Z</time>
      </trkpt>
      <trkpt lat="44.56703" lon="3.08133">
        <ele>1474.32</ele>
        <time>2020-09-01T07:21:33Z</time>
      </trkpt>
      <trkpt lat="44.56722" lon="3.08119">
        <ele>1473.84</ele>
        <time>2020-09-01T07:21:48Z</time>
      </trkpt>
      <trkpt lat="44.56738" lon="3.08105">
        <ele>1472.88</ele>
        <time>2020-09-01T07:22:03Z</time>
      </trkpt>
      <trkpt lat="44.56757" lon="3.08092">
        <ele>1471.44</ele>
        <time>2020-09-01T07:22:18Z</time>
      </trkpt>
      <trkpt lat="44.56775" lon="3.08078">
        <ele>1469.03</ele>
        <time>2020-09-01T07:22:33Z</time>
      </trkpt>
      <trkpt lat="44.56792" lon="3.08065">
        <ele>1465.67</ele>
        <time>2020-09-01T07:22:48Z</time>
      </trkpt>
      <trkpt lat="44.5681" lon="3.0805">
        <ele>1465.19</ele>
        <time>2020-09-01T07:23:03Z</time>
      </trkpt>
      <trkpt lat="44.56827" lon="3.08033">
        <ele>1463.74</ele>
        <time>2020-09-01T07:23:18Z</time>
      </trkpt>
      <trkpt lat="44.56841" lon="3.08014">
        <ele>1461.82</ele>
        <time>2020-09-01T07:23:33Z</time>
      </trkpt>
      <trkpt lat="44.56853" lon="3.07987">
        <ele>1460.38</ele>
        <time>2020-09-01T07:23:48Z</time>
      </trkpt>
      <trkpt lat="44.56862" lon="3.07961">
        <ele>1457.98</ele>
        <time>2020-09-01T07:24:03Z</time>
      </trkpt>
      <trkpt lat="44.5687" lon="3.07933">
        <ele>1456.05</ele>
        <time>2020-09-01T07:24:18Z</time>
      </trkpt>
      <trkpt lat="44.56876" lon="3.07906">
        <ele>1455.57</ele>
        <time>2020-09-01T07:24:33Z</time>
      </trkpt>
      <trkpt lat="44.56884" lon="3.07881">
        <ele>1455.09</ele>
        <time>2020-09-01T07:24:48Z</time>
      </trkpt>
      <trkpt lat="44.56894" lon="3.07857">
        <ele>1449.81</ele>
        <time>2020-09-01T07:25:03Z</time>
      </trkpt>
      <trkpt lat="44.56905" lon="3.07835">
        <ele>1450.29</ele>
        <time>2020-09-01T07:25:18Z</time>
      </trkpt>
      <trkpt lat="44.56912" lon="3.07815">
        <ele>1447.4</ele>
        <time>2020-09-01T07:25:33Z</time>
      </trkpt>
      <trkpt lat="44.56926" lon="3.07795">
        <ele>1444.04</ele>
        <time>2020-09-01T07:25:48Z</time>
      </trkpt>
      <trkpt lat="44.56937" lon="3.07773">
        <ele>1444.52</ele>
        <time>2020-09-01T07:26:03Z</time>
      </trkpt>
      <trkpt lat="44.56945" lon="3.07744">
        <ele>1445.48</ele>
        <time>2020-09-01T07:26:18Z</time>
      </trkpt>
      <trkpt lat="44.56951" lon="3.07717">
        <ele>1445.48</ele>
        <time>2020-09-01T07:26:33Z</time>
      </trkpt>
      <trkpt lat="44.56958" lon="3.07693">
        <ele>1446.92</ele>
        <time>2020-09-01T07:26:48Z</time>
      </trkpt>
      <trkpt lat="44.56967" lon="3.0767">
        <ele>1446.92</ele>
        <time>2020-09-01T07:27:03Z</time>
      </trkpt>
      <trkpt lat="44.5697" lon="3.07665">
        <ele>1446.44</ele>
        <time>2020-09-01T07:27:18Z</time>
      </trkpt>
      <trkpt lat="44.5697" lon="3.07666">
        <ele>1446.92</ele>
        <time>2020-09-01T07:27:33Z</time>
      </trkpt>
      <trkpt lat="44.56969" lon="3.07665">
        <ele>1446.92</ele>
        <time>2020-09-01T07:27:48Z</time>
      </trkpt>
      <trkpt lat="44.56968" lon="3.07666">
        <ele>1446.44</ele>
        <time>2020-09-01T07:28:03Z</time>
      </trkpt>
      <trkpt lat="44.56966" lon="3.07665">
        <ele>1446.44</ele>
        <time>2020-09-01T07:28:18Z</time>
      </trkpt>
      <trkpt lat="44.56967" lon="3.07666">
        <ele>1446.44</ele>
        <time>2020-09-01T07:28:33Z</time>
      </trkpt>
      <trkpt lat="44.56968" lon="3.07666">
        <ele>1446.44</ele>
        <time>2020-09-01T07:28:48Z</time>
      </trkpt>
      <trkpt lat="44.56967" lon="3.07665">
        <ele>1446.44</ele>
        <time>2020-09-01T07:29:03Z</time>
      </trkpt>
      <trkpt lat="44.56967" lon="3.07664">
        <ele>1446.44</ele>
        <time>2020-09-01T07:29:18Z</time>
      </trkpt>
      <trkpt lat="44.56969" lon="3.07663">
        <ele>1448.36</ele>
        <time>2020-09-01T07:29:33Z</time>
      </trkpt>
      <trkpt lat="44.56972" lon="3.07663">
        <ele>1445.96</ele>
        <time>2020-09-01T07:29:48Z</time>
      </trkpt>
      <trkpt lat="44.56972" lon="3.07663">
        <ele>1448.84</ele>
        <time>2020-09-01T07:30:03Z</time>
      </trkpt>
      <trkpt lat="44.56973" lon="3.07663">
        <ele>1445.48</ele>
        <time>2020-09-01T07:30:18Z</time>
      </trkpt>
      <trkpt lat="44.56972" lon="3.07663">
        <ele>1446.92</ele>
        <time>2020-09-01T07:30:33Z</time>
      </trkpt>
      <trkpt lat="44.56974" lon="3.07663">
        <ele>1445.96</ele>
        <time>2020-09-01T07:30:48Z</time>
      </trkpt>
      <trkpt lat="44.56974" lon="3.07662">
        <ele>1445.48</ele>
        <time>2020-09-01T07:31:03Z</time>
      </trkpt>
      <trkpt lat="44.56975" lon="3.07662">
        <ele>1442.6</ele>
        <time>2020-09-01T07:31:18Z</time>
      </trkpt>
      <trkpt lat="44.56977" lon="3.07661">
        <ele>1445</ele>
        <time>2020-09-01T07:31:33Z</time>
      </trkpt>
      <trkpt lat="44.5699" lon="3.07657">
        <ele>1446.44</ele>
        <time>2020-09-01T07:31:48Z</time>
      </trkpt>
      <trkpt lat="44.57007" lon="3.07652">
        <ele>1445.48</ele>
        <time>2020-09-01T07:32:03Z</time>
      </trkpt>
      <trkpt lat="44.57024" lon="3.07648">
        <ele>1446.92</ele>
        <time>2020-09-01T07:32:18Z</time>
      </trkpt>
      <trkpt lat="44.5704" lon="3.07644">
        <ele>1447.88</ele>
        <time>2020-09-01T07:32:33Z</time>
      </trkpt>
      <trkpt lat="44.57056" lon="3.07639">
        <ele>1450.29</ele>
        <time>2020-09-01T07:32:48Z</time>
      </trkpt>
      <trkpt lat="44.57071" lon="3.07635">
        <ele>1450.29</ele>
        <time>2020-09-01T07:33:03Z</time>
      </trkpt>
      <trkpt lat="44.57086" lon="3.0764">
        <ele>1452.21</ele>
        <time>2020-09-01T07:33:18Z</time>
      </trkpt>
      <trkpt lat="44.571" lon="3.07644">
        <ele>1453.17</ele>
        <time>2020-09-01T07:33:33Z</time>
      </trkpt>
      <trkpt lat="44.57105" lon="3.07644">
        <ele>1452.21</ele>
        <time>2020-09-01T07:33:48Z</time>
      </trkpt>
      <trkpt lat="44.57111" lon="3.07647">
        <ele>1453.17</ele>
        <time>2020-09-01T07:34:03Z</time>
      </trkpt>
      <trkpt lat="44.57128" lon="3.07647">
        <ele>1455.09</ele>
        <time>2020-09-01T07:34:18Z</time>
      </trkpt>
      <trkpt lat="44.57146" lon="3.07649">
        <ele>1455.09</ele>
        <time>2020-09-01T07:34:33Z</time>
      </trkpt>
      <trkpt lat="44.57163" lon="3.07651">
        <ele>1455.57</ele>
        <time>2020-09-01T07:34:48Z</time>
      </trkpt>
      <trkpt lat="44.57178" lon="3.07649">
        <ele>1457.02</ele>
        <time>2020-09-01T07:35:03Z</time>
      </trkpt>
      <trkpt lat="44.57193" lon="3.07645">
        <ele>1457.98</ele>
        <time>2020-09-01T07:35:18Z</time>
      </trkpt>
      <trkpt lat="44.5721" lon="3.07639">
        <ele>1459.9</ele>
        <time>2020-09-01T07:35:33Z</time>
      </trkpt>
      <trkpt lat="44.57226" lon="3.07634">
        <ele>1461.34</ele>
        <time>2020-09-01T07:35:48Z</time>
      </trkpt>
      <trkpt lat="44.57241" lon="3.07627">
        <ele>1461.34</ele>
        <time>2020-09-01T07:36:03Z</time>
      </trkpt>
      <trkpt lat="44.57258" lon="3.07616">
        <ele>1460.38</ele>
        <time>2020-09-01T07:36:18Z</time>
      </trkpt>
      <trkpt lat="44.57274" lon="3.07604">
        <ele>1460.86</ele>
        <time>2020-09-01T07:36:33Z</time>
      </trkpt>
      <trkpt lat="44.57287" lon="3.07596">
        <ele>1462.3</ele>
        <time>2020-09-01T07:36:48Z</time>
      </trkpt>
      <trkpt lat="44.57287" lon="3.07592">
        <ele>1461.82</ele>
        <time>2020-09-01T07:37:03Z</time>
      </trkpt>
      <trkpt lat="44.57288" lon="3.0759">
        <ele>1461.34</ele>
        <time>2020-09-01T07:37:18Z</time>
      </trkpt>
      <trkpt lat="44.57292" lon="3.07584">
        <ele>1461.82</ele>
        <time>2020-09-01T07:37:33Z</time>
      </trkpt>
      <trkpt lat="44.57299" lon="3.07575">
        <ele>1460.86</ele>
        <time>2020-09-01T07:37:48Z</time>
      </trkpt>
      <trkpt lat="44.57309" lon="3.07562">
        <ele>1461.82</ele>
        <time>2020-09-01T07:38:03Z</time>
      </trkpt>
      <trkpt lat="44.57318" lon="3.07547">
        <ele>1459.9</ele>
        <time>2020-09-01T07:38:18Z</time>
      </trkpt>
      <trkpt lat="44.57326" lon="3.07528">
        <ele>1459.9</ele>
        <time>2020-09-01T07:38:33Z</time>
      </trkpt>
      <trkpt lat="44.57335" lon="3.07512">
        <ele>1458.94</ele>
        <time>2020-09-01T07:38:48Z</time>
      </trkpt>
      <trkpt lat="44.57345" lon="3.07493">
        <ele>1457.98</ele>
        <time>2020-09-01T07:39:03Z</time>
      </trkpt>
      <trkpt lat="44.57353" lon="3.07476">
        <ele>1456.53</ele>
        <time>2020-09-01T07:39:18Z</time>
      </trkpt>
      <trkpt lat="44.57365" lon="3.07459">
        <ele>1453.65</ele>
        <time>2020-09-01T07:39:33Z</time>
      </trkpt>
      <trkpt lat="44.57374" lon="3.07441">
        <ele>1454.13</ele>
        <time>2020-09-01T07:39:48Z</time>
      </trkpt>
      <trkpt lat="44.57383" lon="3.07421">
        <ele>1451.25</ele>
        <time>2020-09-01T07:40:03Z</time>
      </trkpt>
      <trkpt lat="44.57393" lon="3.07402">
        <ele>1450.77</ele>
        <time>2020-09-01T07:40:18Z</time>
      </trkpt>
      <trkpt lat="44.57404" lon="3.07385">
        <ele>1448.36</ele>
        <time>2020-09-01T07:40:33Z</time>
      </trkpt>
      <trkpt lat="44.57414" lon="3.07367">
        <ele>1445.96</ele>
        <time>2020-09-01T07:40:48Z</time>
      </trkpt>
      <trkpt lat="44.57424" lon="3.07351">
        <ele>1444.04</ele>
        <time>2020-09-01T07:41:03Z</time>
      </trkpt>
      <trkpt lat="44.57436" lon="3.07338">
        <ele>1441.63</ele>
        <time>2020-09-01T07:41:18Z</time>
      </trkpt>
      <trkpt lat="44.57447" lon="3.07324">
        <ele>1439.23</ele>
        <time>2020-09-01T07:41:33Z</time>
      </trkpt>
      <trkpt lat="44.57459" lon="3.0731">
        <ele>1436.35</ele>
        <time>2020-09-01T07:41:48Z</time>
      </trkpt>
      <trkpt lat="44.57472" lon="3.07293">
        <ele>1434.42</ele>
        <time>2020-09-01T07:42:03Z</time>
      </trkpt>
      <trkpt lat="44.57482" lon="3.07282">
        <ele>1433.46</ele>
        <time>2020-09-01T07:42:18Z</time>
      </trkpt>
      <trkpt lat="44.57482" lon="3.07279">
        <ele>1433.94</ele>
        <time>2020-09-01T07:42:33Z</time>
      </trkpt>
      <trkpt lat="44.57482" lon="3.07278">
        <ele>1433.46</ele>
        <time>2020-09-01T07:42:48Z</time>
      </trkpt>
      <trkpt lat="44.57488" lon="3.07275">
        <ele>1432.98</ele>
        <time>2020-09-01T07:43:03Z</time>
      </trkpt>
      <trkpt lat="44.57488" lon="3.07277">
        <ele>1432.5</ele>
        <time>2020-09-01T07:43:18Z</time>
      </trkpt>
      <trkpt lat="44.5749" lon="3.07278">
        <ele>1432.5</ele>
        <time>2020-09-01T07:43:33Z</time>
      </trkpt>
      <trkpt lat="44.57491" lon="3.07279">
        <ele>1432.5</ele>
        <time>2020-09-01T07:43:48Z</time>
      </trkpt>
      <trkpt lat="44.57488" lon="3.0728">
        <ele>1432.5</ele>
        <time>2020-09-01T07:44:03Z</time>
      </trkpt>
      <trkpt lat="44.57487" lon="3.07279">
        <ele>1432.02</ele>
        <time>2020-09-01T07:44:18Z</time>
      </trkpt>
      <trkpt lat="44.57487" lon="3.07261">
        <ele>1432.5</ele>
        <time>2020-09-01T07:44:33Z</time>
      </trkpt>
      <trkpt lat="44.57488" lon="3.07251">
        <ele>1430.1</ele>
        <time>2020-09-01T07:44:48Z</time>
      </trkpt>
      <trkpt lat="44.57494" lon="3.07233">
        <ele>1432.98</ele>
        <time>2020-09-01T07:45:03Z</time>
      </trkpt>
      <trkpt lat="44.57497" lon="3.07216">
        <ele>1431.54</ele>
        <time>2020-09-01T07:45:18Z</time>
      </trkpt>
      <trkpt lat="44.57499" lon="3.07207">
        <ele>1429.62</ele>
        <time>2020-09-01T07:45:33Z</time>
      </trkpt>
      <trkpt lat="44.57504" lon="3.07197">
        <ele>1427.21</ele>
        <time>2020-09-01T07:45:48Z</time>
      </trkpt>
      <trkpt lat="44.57506" lon="3.07187">
        <ele>1424.33</ele>
        <time>2020-09-01T07:46:03Z</time>
      </trkpt>
      <trkpt lat="44.57511" lon="3.07181">
        <ele>1424.33</ele>
        <time>2020-09-01T07:46:18Z</time>
      </trkpt>
      <trkpt lat="44.57508" lon="3.0718">
        <ele>1420</ele>
        <time>2020-09-01T07:46:33Z</time>
      </trkpt>
      <trkpt lat="44.57508" lon="3.07172">
        <ele>1424.33</ele>
        <time>2020-09-01T07:46:48Z</time>
      </trkpt>
      <trkpt lat="44.57511" lon="3.07158">
        <ele>1424.33</ele>
        <time>2020-09-01T07:47:03Z</time>
      </trkpt>
      <trkpt lat="44.57513" lon="3.07147">
        <ele>1424.33</ele>
        <time>2020-09-01T07:47:18Z</time>
      </trkpt>
      <trkpt lat="44.57517" lon="3.07142">
        <ele>1422.41</ele>
        <time>2020-09-01T07:47:33Z</time>
      </trkpt>
      <trkpt lat="44.57528" lon="3.07125">
        <ele>1422.41</ele>
        <time>2020-09-01T07:47:48Z</time>
      </trkpt>
      <trkpt lat="44.57535" lon="3.07108">
        <ele>1421.45</ele>
        <time>2020-09-01T07:48:03Z</time>
      </trkpt>
      <trkpt lat="44.57539" lon="3.07102">
        <ele>1421.45</ele>
        <time>2020-09-01T07:48:18Z</time>
      </trkpt>
      <trkpt lat="44.57546" lon="3.07087">
        <ele>1417.6</ele>
        <time>2020-09-01T07:48:33Z</time>
      </trkpt>
      <trkpt lat="44.57552" lon="3.07073">
        <ele>1416.16</ele>
        <time>2020-09-01T07:48:48Z</time>
      </trkpt>
      <trkpt lat="44.57557" lon="3.07062">
        <ele>1415.68</ele>
        <time>2020-09-01T07:49:03Z</time>
      </trkpt>
      <trkpt lat="44.57558" lon="3.0706">
        <ele>1415.2</ele>
        <time>2020-09-01T07:49:18Z</time>
      </trkpt>
      <trkpt lat="44.57561" lon="3.07057">
        <ele>1415.2</ele>
        <time>2020-09-01T07:49:33Z</time>
      </trkpt>
      <trkpt lat="44.57562" lon="3.07054">
        <ele>1415.68</ele>
        <time>2020-09-01T07:49:48Z</time>
      </trkpt>
      <trkpt lat="44.57559" lon="3.07059">
        <ele>1417.12</ele>
        <time>2020-09-01T07:50:03Z</time>
      </trkpt>
      <trkpt lat="44.5756" lon="3.07055">
        <ele>1415.2</ele>
        <time>2020-09-01T07:50:18Z</time>
      </trkpt>
      <trkpt lat="44.57567" lon="3.07044">
        <ele>1414.24</ele>
        <time>2020-09-01T07:50:33Z</time>
      </trkpt>
      <trkpt lat="44.57572" lon="3.07031">
        <ele>1413.28</ele>
        <time>2020-09-01T07:50:48Z</time>
      </trkpt>
      <trkpt lat="44.57583" lon="3.07014">
        <ele>1411.83</ele>
        <time>2020-09-01T07:51:03Z</time>
      </trkpt>
      <trkpt lat="44.57593" lon="3.06996">
        <ele>1408.47</ele>
        <time>2020-09-01T07:51:18Z</time>
      </trkpt>
      <trkpt lat="44.57604" lon="3.06982">
        <ele>1407.03</ele>
        <time>2020-09-01T07:51:33Z</time>
      </trkpt>
      <trkpt lat="44.57616" lon="3.06959">
        <ele>1407.51</ele>
        <time>2020-09-01T07:51:48Z</time>
      </trkpt>
      <trkpt lat="44.57627" lon="3.06939">
        <ele>1407.03</ele>
        <time>2020-09-01T07:52:03Z</time>
      </trkpt>
      <trkpt lat="44.57638" lon="3.06916">
        <ele>1405.1</ele>
        <time>2020-09-01T07:52:18Z</time>
      </trkpt>
      <trkpt lat="44.57651" lon="3.06895">
        <ele>1406.07</ele>
        <time>2020-09-01T07:52:33Z</time>
      </trkpt>
      <trkpt lat="44.57661" lon="3.06876">
        <ele>1404.14</ele>
        <time>2020-09-01T07:52:48Z</time>
      </trkpt>
      <trkpt lat="44.57667" lon="3.06863">
        <ele>1402.7</ele>
        <time>2020-09-01T07:53:03Z</time>
      </trkpt>
      <trkpt lat="44.57672" lon="3.06844">
        <ele>1403.66</ele>
        <time>2020-09-01T07:53:18Z</time>
      </trkpt>
      <trkpt lat="44.57673" lon="3.06829">
        <ele>1403.66</ele>
        <time>2020-09-01T07:53:33Z</time>
      </trkpt>
      <trkpt lat="44.57675" lon="3.0682">
        <ele>1402.7</ele>
        <time>2020-09-01T07:53:48Z</time>
      </trkpt>
      <trkpt lat="44.57678" lon="3.06796">
        <ele>1401.74</ele>
        <time>2020-09-01T07:54:03Z</time>
      </trkpt>
      <trkpt lat="44.57679" lon="3.06771">
        <ele>1399.34</ele>
        <time>2020-09-01T07:54:18Z</time>
      </trkpt>
      <trkpt lat="44.57678" lon="3.06745">
        <ele>1398.37</ele>
        <time>2020-09-01T07:54:33Z</time>
      </trkpt>
      <trkpt lat="44.57679" lon="3.06744">
        <ele>1397.41</ele>
        <time>2020-09-01T07:54:48Z</time>
      </trkpt>
      <trkpt lat="44.5768" lon="3.06742">
        <ele>1398.86</ele>
        <time>2020-09-01T07:55:03Z</time>
      </trkpt>
      <trkpt lat="44.57679" lon="3.06736">
        <ele>1399.82</ele>
        <time>2020-09-01T07:55:18Z</time>
      </trkpt>
      <trkpt lat="44.57678" lon="3.06712">
        <ele>1399.34</ele>
        <time>2020-09-01T07:55:33Z</time>
      </trkpt>
      <trkpt lat="44.57672" lon="3.06689">
        <ele>1398.37</ele>
        <time>2020-09-01T07:55:48Z</time>
      </trkpt>
      <trkpt lat="44.57667" lon="3.06667">
        <ele>1396.93</ele>
        <time>2020-09-01T07:56:03Z</time>
      </trkpt>
      <trkpt lat="44.57664" lon="3.06644">
        <ele>1395.01</ele>
        <time>2020-09-01T07:56:18Z</time>
      </trkpt>
      <trkpt lat="44.57658" lon="3.06622">
        <ele>1395.01</ele>
        <time>2020-09-01T07:56:33Z</time>
      </trkpt>
      <trkpt lat="44.57651" lon="3.06603">
        <ele>1394.05</ele>
        <time>2020-09-01T07:56:48Z</time>
      </trkpt>
      <trkpt lat="44.57654" lon="3.06602">
        <ele>1394.53</ele>
        <time>2020-09-01T07:57:03Z</time>
      </trkpt>
      <trkpt lat="44.57652" lon="3.06596">
        <ele>1394.53</ele>
        <time>2020-09-01T07:57:18Z</time>
      </trkpt>
      <trkpt lat="44.57652" lon="3.06589">
        <ele>1394.05</ele>
        <time>2020-09-01T07:57:33Z</time>
      </trkpt>
      <trkpt lat="44.5765" lon="3.06589">
        <ele>1393.57</ele>
        <time>2020-09-01T07:57:48Z</time>
      </trkpt>
      <trkpt lat="44.57653" lon="3.06577">
        <ele>1393.57</ele>
        <time>2020-09-01T07:58:03Z</time>
      </trkpt>
      <trkpt lat="44.57659" lon="3.06583">
        <ele>1393.09</ele>
        <time>2020-09-01T07:58:18Z</time>
      </trkpt>
      <trkpt lat="44.57657" lon="3.06583">
        <ele>1393.57</ele>
        <time>2020-09-01T07:58:33Z</time>
      </trkpt>
      <trkpt lat="44.57656" lon="3.06582">
        <ele>1392.61</ele>
        <time>2020-09-01T07:58:48Z</time>
      </trkpt>
      <trkpt lat="44.57657" lon="3.06571">
        <ele>1393.57</ele>
        <time>2020-09-01T07:59:03Z</time>
      </trkpt>
      <trkpt lat="44.57659" lon="3.0657">
        <ele>1395.97</ele>
        <time>2020-09-01T07:59:18Z</time>
      </trkpt>
      <trkpt lat="44.57673" lon="3.0656">
        <ele>1392.13</ele>
        <time>2020-09-01T07:59:33Z</time>
      </trkpt>
      <trkpt lat="44.57686" lon="3.06548">
        <ele>1392.13</ele>
        <time>2020-09-01T07:59:48Z</time>
      </trkpt>
      <trkpt lat="44.57701" lon="3.06532">
        <ele>1391.17</ele>
        <time>2020-09-01T08:00:03Z</time>
      </trkpt>
      <trkpt lat="44.57713" lon="3.06516">
        <ele>1389.72</ele>
        <time>2020-09-01T08:00:18Z</time>
      </trkpt>
      <trkpt lat="44.57727" lon="3.06501">
        <ele>1388.28</ele>
        <time>2020-09-01T08:00:33Z</time>
      </trkpt>
      <trkpt lat="44.57743" lon="3.06486">
        <ele>1387.8</ele>
        <time>2020-09-01T08:00:48Z</time>
      </trkpt>
      <trkpt lat="44.57755" lon="3.06471">
        <ele>1385.4</ele>
        <time>2020-09-01T08:01:03Z</time>
      </trkpt>
      <trkpt lat="44.57767" lon="3.06454">
        <ele>1383.96</ele>
        <time>2020-09-01T08:01:18Z</time>
      </trkpt>
      <trkpt lat="44.57782" lon="3.06437">
        <ele>1383.96</ele>
        <time>2020-09-01T08:01:33Z</time>
      </trkpt>
      <trkpt lat="44.57797" lon="3.0642">
        <ele>1382.99</ele>
        <time>2020-09-01T08:01:48Z</time>
      </trkpt>
      <trkpt lat="44.57811" lon="3.06403">
        <ele>1382.03</ele>
        <time>2020-09-01T08:02:03Z</time>
      </trkpt>
      <trkpt lat="44.57825" lon="3.06392">
        <ele>1381.07</ele>
        <time>2020-09-01T08:02:18Z</time>
      </trkpt>
      <trkpt lat="44.57829" lon="3.0639">
        <ele>1381.07</ele>
        <time>2020-09-01T08:02:33Z</time>
      </trkpt>
      <trkpt lat="44.57827" lon="3.06392">
        <ele>1381.07</ele>
        <time>2020-09-01T08:02:48Z</time>
      </trkpt>
      <trkpt lat="44.57826" lon="3.06391">
        <ele>1380.59</ele>
        <time>2020-09-01T08:03:03Z</time>
      </trkpt>
      <trkpt lat="44.57828" lon="3.06394">
        <ele>1381.07</ele>
        <time>2020-09-01T08:03:18Z</time>
      </trkpt>
      <trkpt lat="44.57828" lon="3.06396">
        <ele>1380.59</ele>
        <time>2020-09-01T08:03:33Z</time>
      </trkpt>
      <trkpt lat="44.57831" lon="3.06396">
        <ele>1380.59</ele>
        <time>2020-09-01T08:03:48Z</time>
      </trkpt>
      <trkpt lat="44.5783" lon="3.06396">
        <ele>1380.59</ele>
        <time>2020-09-01T08:04:03Z</time>
      </trkpt>
      <trkpt lat="44.57833" lon="3.064">
        <ele>1380.59</ele>
        <time>2020-09-01T08:04:18Z</time>
      </trkpt>
      <trkpt lat="44.57834" lon="3.06399">
        <ele>1380.59</ele>
        <time>2020-09-01T08:04:33Z</time>
      </trkpt>
      <trkpt lat="44.57832" lon="3.06403">
        <ele>1381.07</ele>
        <time>2020-09-01T08:04:48Z</time>
      </trkpt>
      <trkpt lat="44.57832" lon="3.064">
        <ele>1381.07</ele>
        <time>2020-09-01T08:05:03Z</time>
      </trkpt>
      <trkpt lat="44.5783" lon="3.06395">
        <ele>1382.03</ele>
        <time>2020-09-01T08:05:18Z</time>
      </trkpt>
      <trkpt lat="44.57831" lon="3.06395">
        <ele>1380.11</ele>
        <time>2020-09-01T08:05:33Z</time>
      </trkpt>
      <trkpt lat="44.57831" lon="3.06397">
        <ele>1381.07</ele>
        <time>2020-09-01T08:05:48Z</time>
      </trkpt>
      <trkpt lat="44.5783" lon="3.06402">
        <ele>1381.55</ele>
        <time>2020-09-01T08:06:03Z</time>
      </trkpt>
      <trkpt lat="44.57826" lon="3.06404">
        <ele>1380.59</ele>
        <time>2020-09-01T08:06:18Z</time>
      </trkpt>
      <trkpt lat="44.57828" lon="3.06396">
        <ele>1380.11</ele>
        <time>2020-09-01T08:06:33Z</time>
      </trkpt>
      <trkpt lat="44.57827" lon="3.06395">
        <ele>1380.59</ele>
        <time>2020-09-01T08:06:48Z</time>
      </trkpt>
      <trkpt lat="44.57823" lon="3.06389">
        <ele>1380.11</ele>
        <time>2020-09-01T08:07:03Z</time>
      </trkpt>
      <trkpt lat="44.57826" lon="3.06392">
        <ele>1381.07</ele>
        <time>2020-09-01T08:07:18Z</time>
      </trkpt>
      <trkpt lat="44.57835" lon="3.06372">
        <ele>1380.11</ele>
        <time>2020-09-01T08:07:33Z</time>
      </trkpt>
      <trkpt lat="44.57846" lon="3.06349">
        <ele>1379.63</ele>
        <time>2020-09-01T08:07:48Z</time>
      </trkpt>
      <trkpt lat="44.57857" lon="3.06325">
        <ele>1379.15</ele>
        <time>2020-09-01T08:08:03Z</time>
      </trkpt>
      <trkpt lat="44.57868" lon="3.06303">
        <ele>1379.63</ele>
        <time>2020-09-01T08:08:18Z</time>
      </trkpt>
      <trkpt lat="44.57879" lon="3.06277">
        <ele>1378.19</ele>
        <time>2020-09-01T08:08:33Z</time>
      </trkpt>
      <trkpt lat="44.5789" lon="3.06256">
        <ele>1377.71</ele>
        <time>2020-09-01T08:08:48Z</time>
      </trkpt>
      <trkpt lat="44.5789" lon="3.06253">
        <ele>1378.67</ele>
        <time>2020-09-01T08:09:03Z</time>
      </trkpt>
      <trkpt lat="44.57897" lon="3.06237">
        <ele>1377.23</ele>
        <time>2020-09-01T08:09:18Z</time>
      </trkpt>
      <trkpt lat="44.57909" lon="3.06214">
        <ele>1378.19</ele>
        <time>2020-09-01T08:09:33Z</time>
      </trkpt>
      <trkpt lat="44.57919" lon="3.06192">
        <ele>1376.26</ele>
        <time>2020-09-01T08:09:48Z</time>
      </trkpt>
      <trkpt lat="44.57927" lon="3.06178">
        <ele>1376.26</ele>
        <time>2020-09-01T08:10:03Z</time>
      </trkpt>
      <trkpt lat="44.57938" lon="3.0616">
        <ele>1375.78</ele>
        <time>2020-09-01T08:10:18Z</time>
      </trkpt>
      <trkpt lat="44.5795" lon="3.06135">
        <ele>1375.3</ele>
        <time>2020-09-01T08:10:33Z</time>
      </trkpt>
      <trkpt lat="44.57966" lon="3.06113">
        <ele>1374.34</ele>
        <time>2020-09-01T08:10:48Z</time>
      </trkpt>
      <trkpt lat="44.57983" lon="3.06094">
        <ele>1373.86</ele>
        <time>2020-09-01T08:11:03Z</time>
      </trkpt>
      <trkpt lat="44.57993" lon="3.06086">
        <ele>1374.82</ele>
        <time>2020-09-01T08:11:18Z</time>
      </trkpt>
      <trkpt lat="44.58013" lon="3.06071">
        <ele>1373.86</ele>
        <time>2020-09-01T08:11:33Z</time>
      </trkpt>
      <trkpt lat="44.58032" lon="3.06056">
        <ele>1373.86</ele>
        <time>2020-09-01T08:11:48Z</time>
      </trkpt>
      <trkpt lat="44.58051" lon="3.06041">
        <ele>1373.38</ele>
        <time>2020-09-01T08:12:03Z</time>
      </trkpt>
      <trkpt lat="44.58063" lon="3.06033">
        <ele>1373.86</ele>
        <time>2020-09-01T08:12:18Z</time>
      </trkpt>
      <trkpt lat="44.58074" lon="3.06027">
        <ele>1373.38</ele>
        <time>2020-09-01T08:12:33Z</time>
      </trkpt>
      <trkpt lat="44.58092" lon="3.06016">
        <ele>1372.9</ele>
        <time>2020-09-01T08:12:48Z</time>
      </trkpt>
      <trkpt lat="44.58111" lon="3.06003">
        <ele>1372.9</ele>
        <time>2020-09-01T08:13:03Z</time>
      </trkpt>
      <trkpt lat="44.5813" lon="3.05989">
        <ele>1371.94</ele>
        <time>2020-09-01T08:13:18Z</time>
      </trkpt>
      <trkpt lat="44.58146" lon="3.05976">
        <ele>1371.94</ele>
        <time>2020-09-01T08:13:33Z</time>
      </trkpt>
      <trkpt lat="44.58158" lon="3.05968">
        <ele>1371.94</ele>
        <time>2020-09-01T08:13:48Z</time>
      </trkpt>
      <trkpt lat="44.58178" lon="3.05955">
        <ele>1372.9</ele>
        <time>2020-09-01T08:14:03Z</time>
      </trkpt>
      <trkpt lat="44.58197" lon="3.05942">
        <ele>1372.9</ele>
        <time>2020-09-01T08:14:18Z</time>
      </trkpt>
      <trkpt lat="44.58214" lon="3.05929">
        <ele>1372.9</ele>
        <time>2020-09-01T08:14:33Z</time>
      </trkpt>
      <trkpt lat="44.58233" lon="3.05916">
        <ele>1374.34</ele>
        <time>2020-09-01T08:14:48Z</time>
      </trkpt>
      <trkpt lat="44.5825" lon="3.05901">
        <ele>1374.82</ele>
        <time>2020-09-01T08:15:03Z</time>
      </trkpt>
      <trkpt lat="44.58268" lon="3.05889">
        <ele>1374.34</ele>
        <time>2020-09-01T08:15:18Z</time>
      </trkpt>
      <trkpt lat="44.58286" lon="3.05875">
        <ele>1374.82</ele>
        <time>2020-09-01T08:15:33Z</time>
      </trkpt>
      <trkpt lat="44.58302" lon="3.05862">
        <ele>1376.75</ele>
        <time>2020-09-01T08:15:48Z</time>
      </trkpt>
      <trkpt lat="44.58304" lon="3.05864">
        <ele>1375.3</ele>
        <time>2020-09-01T08:16:03Z</time>
      </trkpt>
      <trkpt lat="44.58307" lon="3.05862">
        <ele>1375.78</ele>
        <time>2020-09-01T08:16:18Z</time>
      </trkpt>
      <trkpt lat="44.58325" lon="3.05847">
        <ele>1375.78</ele>
        <time>2020-09-01T08:16:33Z</time>
      </trkpt>
      <trkpt lat="44.58344" lon="3.05833">
        <ele>1376.75</ele>
        <time>2020-09-01T08:16:48Z</time>
      </trkpt>
      <trkpt lat="44.58362" lon="3.0582">
        <ele>1376.75</ele>
        <time>2020-09-01T08:17:03Z</time>
      </trkpt>
      <trkpt lat="44.5838" lon="3.05806">
        <ele>1378.19</ele>
        <time>2020-09-01T08:17:18Z</time>
      </trkpt>
      <trkpt lat="44.58399" lon="3.05792">
        <ele>1377.23</ele>
        <time>2020-09-01T08:17:33Z</time>
      </trkpt>
      <trkpt lat="44.58417" lon="3.05781">
        <ele>1378.19</ele>
        <time>2020-09-01T08:17:48Z</time>
      </trkpt>
      <trkpt lat="44.58435" lon="3.0577">
        <ele>1376.75</ele>
        <time>2020-09-01T08:18:03Z</time>
      </trkpt>
      <trkpt lat="44.58453" lon="3.05762">
        <ele>1376.26</ele>
        <time>2020-09-01T08:18:18Z</time>
      </trkpt>
      <trkpt lat="44.58472" lon="3.0575">
        <ele>1377.23</ele>
        <time>2020-09-01T08:18:33Z</time>
      </trkpt>
      <trkpt lat="44.5849" lon="3.05738">
        <ele>1375.78</ele>
        <time>2020-09-01T08:18:48Z</time>
      </trkpt>
      <trkpt lat="44.58507" lon="3.05727">
        <ele>1375.78</ele>
        <time>2020-09-01T08:19:03Z</time>
      </trkpt>
      <trkpt lat="44.58524" lon="3.05714">
        <ele>1375.3</ele>
        <time>2020-09-01T08:19:18Z</time>
      </trkpt>
      <trkpt lat="44.58542" lon="3.057">
        <ele>1375.3</ele>
        <time>2020-09-01T08:19:33Z</time>
      </trkpt>
      <trkpt lat="44.58559" lon="3.05685">
        <ele>1375.78</ele>
        <time>2020-09-01T08:19:48Z</time>
      </trkpt>
      <trkpt lat="44.58576" lon="3.05672">
        <ele>1374.82</ele>
        <time>2020-09-01T08:20:03Z</time>
      </trkpt>
      <trkpt lat="44.58594" lon="3.05657">
        <ele>1373.38</ele>
        <time>2020-09-01T08:20:18Z</time>
      </trkpt>
      <trkpt lat="44.5861" lon="3.05644">
        <ele>1373.86</ele>
        <time>2020-09-01T08:20:33Z</time>
      </trkpt>
      <trkpt lat="44.58613" lon="3.05641">
        <ele>1373.86</ele>
        <time>2020-09-01T08:20:48Z</time>
      </trkpt>
      <trkpt lat="44.58623" lon="3.05634">
        <ele>1373.38</ele>
        <time>2020-09-01T08:21:03Z</time>
      </trkpt>
      <trkpt lat="44.58641" lon="3.05618">
        <ele>1373.86</ele>
        <time>2020-09-01T08:21:18Z</time>
      </trkpt>
      <trkpt lat="44.58659" lon="3.05605">
        <ele>1373.38</ele>
        <time>2020-09-01T08:21:33Z</time>
      </trkpt>
      <trkpt lat="44.58676" lon="3.0559">
        <ele>1372.9</ele>
        <time>2020-09-01T08:21:48Z</time>
      </trkpt>
      <trkpt lat="44.58692" lon="3.05573">
        <ele>1370.98</ele>
        <time>2020-09-01T08:22:03Z</time>
      </trkpt>
      <trkpt lat="44.58706" lon="3.05554">
        <ele>1370.98</ele>
        <time>2020-09-01T08:22:18Z</time>
      </trkpt>
      <trkpt lat="44.58721" lon="3.05535">
        <ele>1369.54</ele>
        <time>2020-09-01T08:22:33Z</time>
      </trkpt>
      <trkpt lat="44.58735" lon="3.05516">
        <ele>1367.61</ele>
        <time>2020-09-01T08:22:48Z</time>
      </trkpt>
      <trkpt lat="44.58749" lon="3.05495">
        <ele>1367.13</ele>
        <time>2020-09-01T08:23:03Z</time>
      </trkpt>
      <trkpt lat="44.58763" lon="3.05476">
        <ele>1366.17</ele>
        <time>2020-09-01T08:23:18Z</time>
      </trkpt>
      <trkpt lat="44.58777" lon="3.05455">
        <ele>1366.17</ele>
        <time>2020-09-01T08:23:33Z</time>
      </trkpt>
      <trkpt lat="44.58791" lon="3.05434">
        <ele>1365.69</ele>
        <time>2020-09-01T08:23:48Z</time>
      </trkpt>
      <trkpt lat="44.58804" lon="3.05414">
        <ele>1365.21</ele>
        <time>2020-09-01T08:24:03Z</time>
      </trkpt>
      <trkpt lat="44.58818" lon="3.05393">
        <ele>1364.73</ele>
        <time>2020-09-01T08:24:18Z</time>
      </trkpt>
      <trkpt lat="44.58833" lon="3.05374">
        <ele>1364.25</ele>
        <time>2020-09-01T08:24:33Z</time>
      </trkpt>
      <trkpt lat="44.58845" lon="3.05354">
        <ele>1364.25</ele>
        <time>2020-09-01T08:24:48Z</time>
      </trkpt>
      <trkpt lat="44.5886" lon="3.05333">
        <ele>1364.73</ele>
        <time>2020-09-01T08:25:03Z</time>
      </trkpt>
      <trkpt lat="44.58873" lon="3.05313">
        <ele>1363.77</ele>
        <time>2020-09-01T08:25:18Z</time>
      </trkpt>
      <trkpt lat="44.58887" lon="3.05293">
        <ele>1363.29</ele>
        <time>2020-09-01T08:25:33Z</time>
      </trkpt>
      <trkpt lat="44.589" lon="3.05272">
        <ele>1362.33</ele>
        <time>2020-09-01T08:25:48Z</time>
      </trkpt>
      <trkpt lat="44.58914" lon="3.05252">
        <ele>1361.84</ele>
        <time>2020-09-01T08:26:03Z</time>
      </trkpt>
      <trkpt lat="44.58928" lon="3.05232">
        <ele>1359.92</ele>
        <time>2020-09-01T08:26:18Z</time>
      </trkpt>
      <trkpt lat="44.5894" lon="3.0521">
        <ele>1359.92</ele>
        <time>2020-09-01T08:26:33Z</time>
      </trkpt>
      <trkpt lat="44.58954" lon="3.0519">
        <ele>1359.44</ele>
        <time>2020-09-01T08:26:48Z</time>
      </trkpt>
      <trkpt lat="44.58967" lon="3.05169">
        <ele>1358</ele>
        <time>2020-09-01T08:27:03Z</time>
      </trkpt>
      <trkpt lat="44.58979" lon="3.05149">
        <ele>1357.04</ele>
        <time>2020-09-01T08:27:18Z</time>
      </trkpt>
      <trkpt lat="44.58993" lon="3.05128">
        <ele>1357.04</ele>
        <time>2020-09-01T08:27:33Z</time>
      </trkpt>
      <trkpt lat="44.59007" lon="3.05107">
        <ele>1355.12</ele>
        <time>2020-09-01T08:27:48Z</time>
      </trkpt>
      <trkpt lat="44.59021" lon="3.05089">
        <ele>1354.63</ele>
        <time>2020-09-01T08:28:03Z</time>
      </trkpt>
      <trkpt lat="44.59037" lon="3.05069">
        <ele>1353.19</ele>
        <time>2020-09-01T08:28:18Z</time>
      </trkpt>
      <trkpt lat="44.59052" lon="3.0505">
        <ele>1351.75</ele>
        <time>2020-09-01T08:28:33Z</time>
      </trkpt>
      <trkpt lat="44.59065" lon="3.05029">
        <ele>1349.83</ele>
        <time>2020-09-01T08:28:48Z</time>
      </trkpt>
      <trkpt lat="44.59077" lon="3.05007">
        <ele>1349.35</ele>
        <time>2020-09-01T08:29:03Z</time>
      </trkpt>
      <trkpt lat="44.59088" lon="3.04985">
        <ele>1347.43</ele>
        <time>2020-09-01T08:29:18Z</time>
      </trkpt>
      <trkpt lat="44.59097" lon="3.0496">
        <ele>1346.94</ele>
        <time>2020-09-01T08:29:33Z</time>
      </trkpt>
      <trkpt lat="44.59107" lon="3.04937">
        <ele>1346.46</ele>
        <time>2020-09-01T08:29:48Z</time>
      </trkpt>
      <trkpt lat="44.59116" lon="3.04911">
        <ele>1345.02</ele>
        <time>2020-09-01T08:30:03Z</time>
      </trkpt>
      <trkpt lat="44.59127" lon="3.04885">
        <ele>1345.02</ele>
        <time>2020-09-01T08:30:18Z</time>
      </trkpt>
      <trkpt lat="44.59134" lon="3.04864">
        <ele>1343.1</ele>
        <time>2020-09-01T08:30:33Z</time>
      </trkpt>
      <trkpt lat="44.59145" lon="3.04839">
        <ele>1341.18</ele>
        <time>2020-09-01T08:30:48Z</time>
      </trkpt>
      <trkpt lat="44.59154" lon="3.04814">
        <ele>1340.22</ele>
        <time>2020-09-01T08:31:03Z</time>
      </trkpt>
      <trkpt lat="44.59163" lon="3.04788">
        <ele>1338.29</ele>
        <time>2020-09-01T08:31:18Z</time>
      </trkpt>
      <trkpt lat="44.59174" lon="3.04761">
        <ele>1337.33</ele>
        <time>2020-09-01T08:31:33Z</time>
      </trkpt>
      <trkpt lat="44.59184" lon="3.04736">
        <ele>1333.97</ele>
        <time>2020-09-01T08:31:48Z</time>
      </trkpt>
      <trkpt lat="44.59194" lon="3.04709">
        <ele>1332.52</ele>
        <time>2020-09-01T08:32:03Z</time>
      </trkpt>
      <trkpt lat="44.59204" lon="3.04684">
        <ele>1331.08</ele>
        <time>2020-09-01T08:32:18Z</time>
      </trkpt>
      <trkpt lat="44.59215" lon="3.04657">
        <ele>1329.16</ele>
        <time>2020-09-01T08:32:33Z</time>
      </trkpt>
      <trkpt lat="44.59225" lon="3.04631">
        <ele>1329.64</ele>
        <time>2020-09-01T08:32:48Z</time>
      </trkpt>
      <trkpt lat="44.59235" lon="3.04606">
        <ele>1326.28</ele>
        <time>2020-09-01T08:33:03Z</time>
      </trkpt>
      <trkpt lat="44.59244" lon="3.0458">
        <ele>1325.31</ele>
        <time>2020-09-01T08:33:18Z</time>
      </trkpt>
      <trkpt lat="44.59255" lon="3.04553">
        <ele>1324.35</ele>
        <time>2020-09-01T08:33:33Z</time>
      </trkpt>
      <trkpt lat="44.59264" lon="3.04528">
        <ele>1324.83</ele>
        <time>2020-09-01T08:33:48Z</time>
      </trkpt>
      <trkpt lat="44.59274" lon="3.045">
        <ele>1323.39</ele>
        <time>2020-09-01T08:34:03Z</time>
      </trkpt>
      <trkpt lat="44.59285" lon="3.04477">
        <ele>1324.35</ele>
        <time>2020-09-01T08:34:18Z</time>
      </trkpt>
      <trkpt lat="44.59295" lon="3.04452">
        <ele>1324.35</ele>
        <time>2020-09-01T08:34:33Z</time>
      </trkpt>
      <trkpt lat="44.59305" lon="3.04427">
        <ele>1324.83</ele>
        <time>2020-09-01T08:34:48Z</time>
      </trkpt>
      <trkpt lat="44.59315" lon="3.04403">
        <ele>1325.31</ele>
        <time>2020-09-01T08:35:03Z</time>
      </trkpt>
      <trkpt lat="44.59324" lon="3.0438">
        <ele>1326.28</ele>
        <time>2020-09-01T08:35:18Z</time>
      </trkpt>
      <trkpt lat="44.59334" lon="3.04358">
        <ele>1329.16</ele>
        <time>2020-09-01T08:35:33Z</time>
      </trkpt>
      <trkpt lat="44.59343" lon="3.04336">
        <ele>1329.16</ele>
        <time>2020-09-01T08:35:48Z</time>
      </trkpt>
      <trkpt lat="44.59353" lon="3.04314">
        <ele>1329.64</ele>
        <time>2020-09-01T08:36:03Z</time>
      </trkpt>
      <trkpt lat="44.59361" lon="3.0429">
        <ele>1331.56</ele>
        <time>2020-09-01T08:36:18Z</time>
      </trkpt>
      <trkpt lat="44.59372" lon="3.04264">
        <ele>1332.52</ele>
        <time>2020-09-01T08:36:33Z</time>
      </trkpt>
      <trkpt lat="44.59376" lon="3.0425">
        <ele>1331.08</ele>
        <time>2020-09-01T08:36:48Z</time>
      </trkpt>
      <trkpt lat="44.59383" lon="3.04233">
        <ele>1331.08</ele>
        <time>2020-09-01T08:37:03Z</time>
      </trkpt>
      <trkpt lat="44.59392" lon="3.04204">
        <ele>1331.08</ele>
        <time>2020-09-01T08:37:18Z</time>
      </trkpt>
      <trkpt lat="44.59402" lon="3.04179">
        <ele>1330.6</ele>
        <time>2020-09-01T08:37:33Z</time>
      </trkpt>
      <trkpt lat="44.5941" lon="3.04157">
        <ele>1331.08</ele>
        <time>2020-09-01T08:37:48Z</time>
      </trkpt>
      <trkpt lat="44.59416" lon="3.04137">
        <ele>1331.56</ele>
        <time>2020-09-01T08:38:03Z</time>
      </trkpt>
      <trkpt lat="44.59423" lon="3.04123">
        <ele>1332.04</ele>
        <time>2020-09-01T08:38:18Z</time>
      </trkpt>
      <trkpt lat="44.59432" lon="3.04096">
        <ele>1331.08</ele>
        <time>2020-09-01T08:38:33Z</time>
      </trkpt>
      <trkpt lat="44.59442" lon="3.04067">
        <ele>1332.52</ele>
        <time>2020-09-01T08:38:48Z</time>
      </trkpt>
      <trkpt lat="44.59452" lon="3.04042">
        <ele>1333.01</ele>
        <time>2020-09-01T08:39:03Z</time>
      </trkpt>
      <trkpt lat="44.59461" lon="3.04017">
        <ele>1333.97</ele>
        <time>2020-09-01T08:39:18Z</time>
      </trkpt>
      <trkpt lat="44.5947" lon="3.03994">
        <ele>1334.93</ele>
        <time>2020-09-01T08:39:33Z</time>
      </trkpt>
      <trkpt lat="44.59478" lon="3.03973">
        <ele>1334.93</ele>
        <time>2020-09-01T08:39:48Z</time>
      </trkpt>
      <trkpt lat="44.59484" lon="3.03954">
        <ele>1335.89</ele>
        <time>2020-09-01T08:40:03Z</time>
      </trkpt>
      <trkpt lat="44.5949" lon="3.03937">
        <ele>1338.29</ele>
        <time>2020-09-01T08:40:18Z</time>
      </trkpt>
      <trkpt lat="44.59498" lon="3.03911">
        <ele>1337.81</ele>
        <time>2020-09-01T08:40:33Z</time>
      </trkpt>
      <trkpt lat="44.59507" lon="3.03885">
        <ele>1337.33</ele>
        <time>2020-09-01T08:40:48Z</time>
      </trkpt>
      <trkpt lat="44.59516" lon="3.03857">
        <ele>1338.29</ele>
        <time>2020-09-01T08:41:03Z</time>
      </trkpt>
      <trkpt lat="44.59524" lon="3.03832">
        <ele>1337.81</ele>
        <time>2020-09-01T08:41:18Z</time>
      </trkpt>
      <trkpt lat="44.59533" lon="3.03805">
        <ele>1337.81</ele>
        <time>2020-09-01T08:41:33Z</time>
      </trkpt>
      <trkpt lat="44.59542" lon="3.0378">
        <ele>1337.33</ele>
        <time>2020-09-01T08:41:48Z</time>
      </trkpt>
      <trkpt lat="44.5955" lon="3.03752">
        <ele>1337.33</ele>
        <time>2020-09-01T08:42:03Z</time>
      </trkpt>
      <trkpt lat="44.59558" lon="3.03728">
        <ele>1337.81</ele>
        <time>2020-09-01T08:42:18Z</time>
      </trkpt>
      <trkpt lat="44.59566" lon="3.03703">
        <ele>1338.77</ele>
        <time>2020-09-01T08:42:33Z</time>
      </trkpt>
      <trkpt lat="44.59574" lon="3.03679">
        <ele>1340.7</ele>
        <time>2020-09-01T08:42:48Z</time>
      </trkpt>
      <trkpt lat="44.59581" lon="3.03657">
        <ele>1342.62</ele>
        <time>2020-09-01T08:43:03Z</time>
      </trkpt>
      <trkpt lat="44.59587" lon="3.03636">
        <ele>1343.1</ele>
        <time>2020-09-01T08:43:18Z</time>
      </trkpt>
      <trkpt lat="44.59595" lon="3.03612">
        <ele>1345.02</ele>
        <time>2020-09-01T08:43:33Z</time>
      </trkpt>
      <trkpt lat="44.59602" lon="3.0359">
        <ele>1345.98</ele>
        <time>2020-09-01T08:43:48Z</time>
      </trkpt>
      <trkpt lat="44.5961" lon="3.03568">
        <ele>1347.43</ele>
        <time>2020-09-01T08:44:03Z</time>
      </trkpt>
      <trkpt lat="44.59615" lon="3.03544">
        <ele>1347.43</ele>
        <time>2020-09-01T08:44:18Z</time>
      </trkpt>
      <trkpt lat="44.59626" lon="3.03522">
        <ele>1347.91</ele>
        <time>2020-09-01T08:44:33Z</time>
      </trkpt>
      <trkpt lat="44.59632" lon="3.035">
        <ele>1349.35</ele>
        <time>2020-09-01T08:44:48Z</time>
      </trkpt>
      <trkpt lat="44.59638" lon="3.03476">
        <ele>1349.35</ele>
        <time>2020-09-01T08:45:03Z</time>
      </trkpt>
      <trkpt lat="44.59645" lon="3.03453">
        <ele>1351.27</ele>
        <time>2020-09-01T08:45:18Z</time>
      </trkpt>
      <trkpt lat="44.59646" lon="3.03445">
        <ele>1350.31</ele>
        <time>2020-09-01T08:45:33Z</time>
      </trkpt>
      <trkpt lat="44.59645" lon="3.03447">
        <ele>1349.83</ele>
        <time>2020-09-01T08:45:48Z</time>
      </trkpt>
      <trkpt lat="44.59645" lon="3.03448">
        <ele>1350.79</ele>
        <time>2020-09-01T08:46:03Z</time>
      </trkpt>
      <trkpt lat="44.59656" lon="3.03428">
        <ele>1351.27</ele>
        <time>2020-09-01T08:46:18Z</time>
      </trkpt>
      <trkpt lat="44.59663" lon="3.03401">
        <ele>1350.79</ele>
        <time>2020-09-01T08:46:33Z</time>
      </trkpt>
      <trkpt lat="44.59673" lon="3.03374">
        <ele>1351.75</ele>
        <time>2020-09-01T08:46:48Z</time>
      </trkpt>
      <trkpt lat="44.59682" lon="3.03348">
        <ele>1351.27</ele>
        <time>2020-09-01T08:47:03Z</time>
      </trkpt>
      <trkpt lat="44.59694" lon="3.03322">
        <ele>1349.35</ele>
        <time>2020-09-01T08:47:18Z</time>
      </trkpt>
      <trkpt lat="44.59707" lon="3.03301">
        <ele>1349.35</ele>
        <time>2020-09-01T08:47:33Z</time>
      </trkpt>
      <trkpt lat="44.59718" lon="3.03278">
        <ele>1348.39</ele>
        <time>2020-09-01T08:47:48Z</time>
      </trkpt>
      <trkpt lat="44.5973" lon="3.03257">
        <ele>1347.43</ele>
        <time>2020-09-01T08:48:03Z</time>
      </trkpt>
      <trkpt lat="44.59733" lon="3.03245">
        <ele>1346.46</ele>
        <time>2020-09-01T08:48:18Z</time>
      </trkpt>
      <trkpt lat="44.59745" lon="3.03222">
        <ele>1347.91</ele>
        <time>2020-09-01T08:48:33Z</time>
      </trkpt>
      <trkpt lat="44.5976" lon="3.03199">
        <ele>1347.43</ele>
        <time>2020-09-01T08:48:48Z</time>
      </trkpt>
      <trkpt lat="44.59766" lon="3.03188">
        <ele>1345.98</ele>
        <time>2020-09-01T08:49:03Z</time>
      </trkpt>
      <trkpt lat="44.59771" lon="3.03178">
        <ele>1345.98</ele>
        <time>2020-09-01T08:49:18Z</time>
      </trkpt>
      <trkpt lat="44.59772" lon="3.03177">
        <ele>1345.5</ele>
        <time>2020-09-01T08:49:33Z</time>
      </trkpt>
      <trkpt lat="44.59776" lon="3.03161">
        <ele>1345.02</ele>
        <time>2020-09-01T08:49:48Z</time>
      </trkpt>
      <trkpt lat="44.59785" lon="3.03141">
        <ele>1344.06</ele>
        <time>2020-09-01T08:50:03Z</time>
      </trkpt>
      <trkpt lat="44.59791" lon="3.03129">
        <ele>1344.06</ele>
        <time>2020-09-01T08:50:18Z</time>
      </trkpt>
      <trkpt lat="44.59795" lon="3.03119">
        <ele>1342.14</ele>
        <time>2020-09-01T08:50:33Z</time>
      </trkpt>
      <trkpt lat="44.59801" lon="3.03097">
        <ele>1340.22</ele>
        <time>2020-09-01T08:50:48Z</time>
      </trkpt>
      <trkpt lat="44.59809" lon="3.03071">
        <ele>1340.7</ele>
        <time>2020-09-01T08:51:03Z</time>
      </trkpt>
      <trkpt lat="44.59813" lon="3.03045">
        <ele>1339.73</ele>
        <time>2020-09-01T08:51:18Z</time>
      </trkpt>
      <trkpt lat="44.59813" lon="3.03017">
        <ele>1341.18</ele>
        <time>2020-09-01T08:51:33Z</time>
      </trkpt>
      <trkpt lat="44.59815" lon="3.02993">
        <ele>1338.77</ele>
        <time>2020-09-01T08:51:48Z</time>
      </trkpt>
      <trkpt lat="44.5982" lon="3.02972">
        <ele>1338.29</ele>
        <time>2020-09-01T08:52:03Z</time>
      </trkpt>
      <trkpt lat="44.59825" lon="3.02948">
        <ele>1337.33</ele>
        <time>2020-09-01T08:52:18Z</time>
      </trkpt>
      <trkpt lat="44.59827" lon="3.02924">
        <ele>1337.81</ele>
        <time>2020-09-01T08:52:33Z</time>
      </trkpt>
      <trkpt lat="44.5983" lon="3.02898">
        <ele>1337.81</ele>
        <time>2020-09-01T08:52:48Z</time>
      </trkpt>
      <trkpt lat="44.59834" lon="3.02875">
        <ele>1337.33</ele>
        <time>2020-09-01T08:53:03Z</time>
      </trkpt>
      <trkpt lat="44.59837" lon="3.02851">
        <ele>1338.29</ele>
        <time>2020-09-01T08:53:18Z</time>
      </trkpt>
      <trkpt lat="44.59838" lon="3.02828">
        <ele>1337.33</ele>
        <time>2020-09-01T08:53:33Z</time>
      </trkpt>
      <trkpt lat="44.59834" lon="3.0281">
        <ele>1338.29</ele>
        <time>2020-09-01T08:53:48Z</time>
      </trkpt>
      <trkpt lat="44.59828" lon="3.028">
        <ele>1338.29</ele>
        <time>2020-09-01T08:54:03Z</time>
      </trkpt>
      <trkpt lat="44.59823" lon="3.02796">
        <ele>1340.7</ele>
        <time>2020-09-01T08:54:18Z</time>
      </trkpt>
      <trkpt lat="44.5982" lon="3.02795">
        <ele>1340.22</ele>
        <time>2020-09-01T08:54:33Z</time>
      </trkpt>
      <trkpt lat="44.5982" lon="3.02796">
        <ele>1341.66</ele>
        <time>2020-09-01T08:54:48Z</time>
      </trkpt>
      <trkpt lat="44.5982" lon="3.02793">
        <ele>1341.18</ele>
        <time>2020-09-01T08:55:03Z</time>
      </trkpt>
      <trkpt lat="44.5982" lon="3.02797">
        <ele>1340.7</ele>
        <time>2020-09-01T08:55:18Z</time>
      </trkpt>
      <trkpt lat="44.59819" lon="3.02799">
        <ele>1340.22</ele>
        <time>2020-09-01T08:55:33Z</time>
      </trkpt>
      <trkpt lat="44.59819" lon="3.02799">
        <ele>1340.22</ele>
        <time>2020-09-01T08:55:48Z</time>
      </trkpt>
      <trkpt lat="44.59819" lon="3.02799">
        <ele>1340.7</ele>
        <time>2020-09-01T08:56:03Z</time>
      </trkpt>
      <trkpt lat="44.5982" lon="3.02798">
        <ele>1341.66</ele>
        <time>2020-09-01T08:56:18Z</time>
      </trkpt>
      <trkpt lat="44.5982" lon="3.02797">
        <ele>1340.7</ele>
        <time>2020-09-01T08:56:33Z</time>
      </trkpt>
      <trkpt lat="44.5982" lon="3.02798">
        <ele>1339.73</ele>
        <time>2020-09-01T08:56:48Z</time>
      </trkpt>
      <trkpt lat="44.5982" lon="3.02798">
        <ele>1340.22</ele>
        <time>2020-09-01T08:57:03Z</time>
      </trkpt>
      <trkpt lat="44.59819" lon="3.02797">
        <ele>1340.22</ele>
        <time>2020-09-01T08:57:18Z</time>
      </trkpt>
      <trkpt lat="44.59818" lon="3.02796">
        <ele>1340.7</ele>
        <time>2020-09-01T08:57:33Z</time>
      </trkpt>
      <trkpt lat="44.59818" lon="3.02797">
        <ele>1340.22</ele>
        <time>2020-09-01T08:57:48Z</time>
      </trkpt>
      <trkpt lat="44.59818" lon="3.02797">
        <ele>1340.22</ele>
        <time>2020-09-01T08:58:03Z</time>
      </trkpt>
      <trkpt lat="44.59818" lon="3.02799">
        <ele>1340.22</ele>
        <time>2020-09-01T08:58:18Z</time>
      </trkpt>
      <trkpt lat="44.5982" lon="3.02799">
        <ele>1340.22</ele>
        <time>2020-09-01T08:58:33Z</time>
      </trkpt>
      <trkpt lat="44.5982" lon="3.028">
        <ele>1340.22</ele>
        <time>2020-09-01T08:58:48Z</time>
      </trkpt>
      <trkpt lat="44.5982" lon="3.028">
        <ele>1340.7</ele>
        <time>2020-09-01T08:59:03Z</time>
      </trkpt>
      <trkpt lat="44.59821" lon="3.02799">
        <ele>1340.7</ele>
        <time>2020-09-01T08:59:18Z</time>
      </trkpt>
      <trkpt lat="44.59821" lon="3.02799">
        <ele>1340.7</ele>
        <time>2020-09-01T08:59:33Z</time>
      </trkpt>
      <trkpt lat="44.59821" lon="3.02798">
        <ele>1340.7</ele>
        <time>2020-09-01T08:59:48Z</time>
      </trkpt>
      <trkpt lat="44.59821" lon="3.02798">
        <ele>1340.22</ele>
        <time>2020-09-01T09:00:03Z</time>
      </trkpt>
      <trkpt lat="44.59821" lon="3.02799">
        <ele>1340.7</ele>
        <time>2020-09-01T09:00:18Z</time>
      </trkpt>
      <trkpt lat="44.5982" lon="3.02798">
        <ele>1340.22</ele>
        <time>2020-09-01T09:00:33Z</time>
      </trkpt>
      <trkpt lat="44.5982" lon="3.02798">
        <ele>1340.22</ele>
        <time>2020-09-01T09:00:48Z</time>
      </trkpt>
      <trkpt lat="44.59821" lon="3.02798">
        <ele>1340.22</ele>
        <time>2020-09-01T09:01:03Z</time>
      </trkpt>
      <trkpt lat="44.59821" lon="3.02798">
        <ele>1340.22</ele>
        <time>2020-09-01T09:01:18Z</time>
      </trkpt>
      <trkpt lat="44.59821" lon="3.02798">
        <ele>1340.7</ele>
        <time>2020-09-01T09:01:33Z</time>
      </trkpt>
      <trkpt lat="44.5982" lon="3.02798">
        <ele>1340.7</ele>
        <time>2020-09-01T09:01:48Z</time>
      </trkpt>
      <trkpt lat="44.5982" lon="3.02798">
        <ele>1340.22</ele>
        <time>2020-09-01T09:02:03Z</time>
      </trkpt>
      <trkpt lat="44.59821" lon="3.02798">
        <ele>1340.22</ele>
        <time>2020-09-01T09:02:18Z</time>
      </trkpt>
      <trkpt lat="44.59821" lon="3.02798">
        <ele>1340.7</ele>
        <time>2020-09-01T09:02:33Z</time>
      </trkpt>
      <trkpt lat="44.5982" lon="3.02798">
        <ele>1340.22</ele>
        <time>2020-09-01T09:02:48Z</time>
      </trkpt>
      <trkpt lat="44.5982" lon="3.02798">
        <ele>1340.22</ele>
        <time>2020-09-01T09:03:03Z</time>
      </trkpt>
      <trkpt lat="44.59819" lon="3.02798">
        <ele>1340.7</ele>
        <time>2020-09-01T09:03:18Z</time>
      </trkpt>
      <trkpt lat="44.59819" lon="3.02798">
        <ele>1340.22</ele>
        <time>2020-09-01T09:03:33Z</time>
      </trkpt>
      <trkpt lat="44.59819" lon="3.02798">
        <ele>1340.7</ele>
        <time>2020-09-01T09:03:48Z</time>
      </trkpt>
      <trkpt lat="44.5982" lon="3.02798">
        <ele>1340.22</ele>
        <time>2020-09-01T09:04:03Z</time>
      </trkpt>
      <trkpt lat="44.59819" lon="3.02799">
        <ele>1340.7</ele>
        <time>2020-09-01T09:04:18Z</time>
      </trkpt>
      <trkpt lat="44.59819" lon="3.02798">
        <ele>1340.22</ele>
        <time>2020-09-01T09:04:33Z</time>
      </trkpt>
      <trkpt lat="44.59818" lon="3.02798">
        <ele>1341.18</ele>
        <time>2020-09-01T09:04:48Z</time>
      </trkpt>
      <trkpt lat="44.59818" lon="3.02799">
        <ele>1340.7</ele>
        <time>2020-09-01T09:05:03Z</time>
      </trkpt>
      <trkpt lat="44.59819" lon="3.02799">
        <ele>1341.18</ele>
        <time>2020-09-01T09:05:18Z</time>
      </trkpt>
      <trkpt lat="44.59819" lon="3.02799">
        <ele>1341.18</ele>
        <time>2020-09-01T09:05:33Z</time>
      </trkpt>
      <trkpt lat="44.59818" lon="3.02798">
        <ele>1340.7</ele>
        <time>2020-09-01T09:05:48Z</time>
      </trkpt>
      <trkpt lat="44.59819" lon="3.02798">
        <ele>1341.18</ele>
        <time>2020-09-01T09:06:03Z</time>
      </trkpt>
      <trkpt lat="44.5982" lon="3.02798">
        <ele>1339.73</ele>
        <time>2020-09-01T09:06:06Z</time>
      </trkpt>
      <trkpt lat="44.59818" lon="3.02799">
        <ele>860.52</ele>
        <time>2020-09-01T13:14:32Z</time>
      </trkpt>
      <trkpt lat="44.593" lon="2.92894">
        <ele>861</ele>
        <time>2020-09-01T13:14:47Z</time>
      </trkpt>
    </trkseg>
  </trk>
</gpx>